Observation data for Adrian on 06/14/2019      Previous  Date  Next       Current Mesonet Observations  Soil Data  Daily Summary Page  Observations in Plain Language
KAD1 140500Z 12021KT 19/15 A3002 RMK A01 T01870146  RH  077%=      5-min Rain = 0
KAD1 140501Z 12020KT 19/15 A3002 RMK A01 T01880146  RH  076%=      5-min Rain = 0
KAD1 140502Z 12019KT 19/15 A3002 RMK A01 T01890146  RH  076%=      5-min Rain = 0
KAD1 140503Z 12019KT 19/15 A3002 RMK A01 T01890146  RH  076%=      5-min Rain = 0
KAD1 140504Z 12019KT 19/15 A3002 RMK A01 T01900146  RH  076%=      5-min Rain = 0
KAD1 140505Z 12019KT 19/15 A3002 RMK A01 T01900146  RH  075%=      5-min Rain = 0
KAD1 140506Z 12018KT 19/15 A3002 RMK A01 T01910146  RH  075%=      5-min Rain = 0
KAD1 140507Z 12020KT 19/15 A3002 RMK A01 T01910146  RH  075%=      5-min Rain = 0
KAD1 140508Z 12020G25KT 19/15 A3002 RMK A01 T01920145  RH  074%=      5-min Rain = 0
KAD1 140509Z 12021KT 19/15 A3002 RMK A01 T01940145  RH  073%=      5-min Rain = 0
KAD1 140510Z 12022KT 20/15 A3003 RMK A01 T01950145  RH  073%=      5-min Rain = 0
KAD1 140511Z 12022KT 20/15 A3003 RMK A01 T01960145  RH  072%=      5-min Rain = 0
KAD1 140512Z 12021KT 20/15 A3003 RMK A01 T01970145  RH  072%=      5-min Rain = 0
KAD1 140513Z 13023KT 20/14 A3003 RMK A01 T01980144  RH  071%=      5-min Rain = 0
KAD1 140514Z 13021G26KT 20/15 A3003 RMK A01 T01990145  RH  071%=      5-min Rain = 0
KAD1 140515Z 13022KT 20/15 A3003 RMK A01 T01990145  RH  071%=      5-min Rain = 0
KAD1 140516Z 13021KT 20/15 A3003 RMK A01 T02000145  RH  071%=      5-min Rain = 0
KAD1 140517Z 13021KT 20/15 A3003 RMK A01 T02000145  RH  071%=      5-min Rain = 0
KAD1 140518Z 13020KT 20/15 A3003 RMK A01 T01990145  RH  071%=      5-min Rain = 0
KAD1 140519Z 13021KT 20/15 A3003 RMK A01 T01990145  RH  071%=      5-min Rain = 0
KAD1 140520Z 13021KT 20/15 A3003 RMK A01 T02000145  RH  071%=      5-min Rain = 0
KAD1 140521Z 13021KT 20/15 A3003 RMK A01 T02000145  RH  070%=      5-min Rain = 0
KAD1 140522Z 13025KT 20/14 A3002 RMK A01 T02010144  RH  070%=      5-min Rain = 0
KAD1 140523Z 13024KT 20/14 A3001 RMK A01 T02020144  RH  070%=      5-min Rain = 0
KAD1 140524Z 13024KT 20/14 A3001 RMK A01 T02020144  RH  069%=      5-min Rain = 0
KAD1 140525Z 12024KT 20/15 A3001 RMK A01 T02020145  RH  070%=      5-min Rain = 0
KAD1 140526Z 13024G29KT 20/15 A3001 RMK A01 T02020145  RH  070%=      5-min Rain = 0
KAD1 140527Z 13023KT 20/15 A3002 RMK A01 T02020145  RH  070%=      5-min Rain = 0
KAD1 140528Z 13021G26KT 20/15 A3002 RMK A01 T02010145  RH  070%=      5-min Rain = 0
KAD1 140529Z 13021KT 20/15 A3002 RMK A01 T02000145  RH  071%=      5-min Rain = 0
KAD1 140530Z 13021KT 20/15 A3002 RMK A01 T02000146  RH  071%=      5-min Rain = 0
KAD1 140531Z 13023KT 20/15 A3001 RMK A01 T01990146  RH  071%=      5-min Rain = 0
KAD1 140532Z 13022KT 20/15 A3002 RMK A01 T01990146  RH  071%=      5-min Rain = 0
KAD1 140533Z 13024KT 20/15 A3001 RMK A01 T01990146  RH  072%=      5-min Rain = 0
KAD1 140534Z 13023KT 20/15 A3001 RMK A01 T01990146  RH  072%=      5-min Rain = 0
KAD1 140535Z 13024KT 20/15 A3001 RMK A01 T01990147  RH  072%=      5-min Rain = 0
KAD1 140536Z 13024KT 20/15 A3001 RMK A01 T01980146  RH  072%=      5-min Rain = 0
KAD1 140537Z 13024KT 20/15 A3002 RMK A01 T01980146  RH  072%=      5-min Rain = 0
KAD1 140538Z 13026KT 20/15 A3002 RMK A01 T01980147  RH  072%=      5-min Rain = 0
KAD1 140539Z 13023KT 20/15 A3002 RMK A01 T01970147  RH  073%=      5-min Rain = 0
KAD1 140540Z 13022G28KT 20/15 A3002 RMK A01 T01970147  RH  073%=      5-min Rain = 0
KAD1 140541Z 13024G29KT 20/15 A3002 RMK A01 T01960147  RH  073%=      5-min Rain = 0
KAD1 140542Z 13026KT 20/15 A3002 RMK A01 T01960147  RH  073%=      5-min Rain = 0
KAD1 140543Z 13024KT 20/15 A3002 RMK A01 T01960147  RH  073%=      5-min Rain = 0
KAD1 140544Z 13026KT 20/15 A3002 RMK A01 T01970148  RH  073%=      5-min Rain = 0
KAD1 140545Z 13024KT 20/15 A3002 RMK A01 T01960147  RH  073%=      5-min Rain = 0
KAD1 140546Z 13026KT 20/15 A3002 RMK A01 T01960147  RH  073%=      5-min Rain = 0
KAD1 140547Z 13023KT 20/15 A3002 RMK A01 T01960147  RH  073%=      5-min Rain = 0
KAD1 140548Z 13024KT 20/15 A3002 RMK A01 T01960147  RH  073%=      5-min Rain = 0
KAD1 140549Z 13025KT 20/15 A3002 RMK A01 T01960147  RH  074%=      5-min Rain = 0
KAD1 140550Z 13024KT 20/15 A3002 RMK A01 T01950147  RH  074%=      5-min Rain = 0
KAD1 140551Z 13024KT 19/15 A3002 RMK A01 T01940148  RH  074%=      5-min Rain = 0
KAD1 140552Z 13023KT 19/15 A3002 RMK A01 T01940148  RH  075%=      5-min Rain = 0
KAD1 140553Z 13023KT 19/15 A3002 RMK A01 T01930148  RH  075%=      5-min Rain = 0
KAD1 140554Z 12022KT 19/15 A3003 RMK A01 T01930148  RH  075%=      5-min Rain = 0
KAD1 140555Z 13024KT 19/15 A3003 RMK A01 T01930148  RH  075%=      5-min Rain = 0
KAD1 140556Z 13023KT 19/15 A3003 RMK A01 T01930148  RH  075%=      5-min Rain = 0
KAD1 140557Z 12020KT 19/15 A3004 RMK A01 T01930148  RH  075%=      5-min Rain = 0
KAD1 140558Z 12022KT 19/15 A3004 RMK A01 T01930149  RH  076%=      5-min Rain = 0
KAD1 140559Z 12023KT 19/15 A3004 RMK A01 T01930149  RH  076%=      5-min Rain = 0
KAD1 140600Z 12022KT 19/15 A3004 RMK A01 T01930148  RH  076%=      5-min Rain = 0
KAD1 140601Z 12023KT 19/15 A3005 RMK A01 T01920149  RH  076%=      5-min Rain = 0
KAD1 140602Z 12023KT 19/15 A3005 RMK A01 T01930150  RH  076%=      5-min Rain = 0
KAD1 140603Z 11024KT 19/15 A3005 RMK A01 T01920149  RH  076%=      5-min Rain = 0
KAD1 140604Z 11020KT 19/15 A3005 RMK A01 T01920149  RH  077%=      5-min Rain = 0
KAD1 140605Z 11022KT 19/15 A3005 RMK A01 T01910150  RH  077%=      5-min Rain = 0
KAD1 140606Z 11023KT 19/15 A3006 RMK A01 T01900150  RH  077%=      5-min Rain = 0
KAD1 140607Z 11023KT 19/15 A3006 RMK A01 T01900150  RH  078%=      5-min Rain = 0
KAD1 140608Z 11022KT 19/15 A3006 RMK A01 T01890150  RH  078%=      5-min Rain = 0
KAD1 140609Z 11021KT 19/15 A3006 RMK A01 T01890150  RH  078%=      5-min Rain = 0
KAD1 140610Z 11021KT 19/15 A3006 RMK A01 T01880150  RH  078%=      5-min Rain = 0
KAD1 140611Z 11019KT 19/15 A3006 RMK A01 T01880150  RH  079%=      5-min Rain = 0
KAD1 140612Z 11020KT 19/15 A3006 RMK A01 T01870150  RH  079%=      5-min Rain = 0
KAD1 140613Z 10022KT 19/15 A3006 RMK A01 T01870150  RH  079%=      5-min Rain = 0
KAD1 140614Z 10023G28KT 19/15 A3006 RMK A01 T01860149  RH  079%=      5-min Rain = 0
KAD1 140615Z 10022KT 19/15 A3006 RMK A01 T01860149  RH  079%=      5-min Rain = 0
KAD1 140616Z 11024KT 19/15 A3005 RMK A01 T01850149  RH  079%=      5-min Rain = 0
KAD1 140617Z 10023KT 18/15 A3005 RMK A01 T01840149  RH  080%=      5-min Rain = 0
KAD1 140618Z 10025KT 18/15 A3005 RMK A01 T01830148  RH  080%=      5-min Rain = 0
KAD1 140619Z 10025KT 18/15 A3005 RMK A01 T01830148  RH  080%=      5-min Rain = 0
KAD1 140620Z 11026KT 18/15 A3005 RMK A01 T01820148  RH  080%=      5-min Rain = 0
KAD1 140621Z 11024KT 18/15 A3005 RMK A01 T01810148  RH  081%=      5-min Rain = 0
KAD1 140622Z 11026KT 18/15 A3005 RMK A01 T01810148  RH  081%=      5-min Rain = 0
KAD1 140623Z 11025KT 18/15 A3005 RMK A01 T01800148  RH  081%=      5-min Rain = 0
KAD1 140624Z 12027KT 18/15 A3005 RMK A01 T01800148  RH  082%=      5-min Rain = 0
KAD1 140625Z 12023KT 18/15 A3004 RMK A01 T01790147  RH  082%=      5-min Rain = 0
KAD1 140626Z 12025KT 18/15 A3004 RMK A01 T01780147  RH  082%=      5-min Rain = 0
KAD1 140627Z 12025KT 18/15 A3004 RMK A01 T01770147  RH  082%=      5-min Rain = 0
KAD1 140628Z 12025KT 18/15 A3004 RMK A01 T01760147  RH  083%=      5-min Rain = 0
KAD1 140629Z 12023KT 18/15 A3005 RMK A01 T01760147  RH  083%=      5-min Rain = 0
KAD1 140630Z 13023KT 18/15 A3005 RMK A01 T01750147  RH  084%=      5-min Rain = 0
KAD1 140631Z 13025KT 17/15 A3004 RMK A01 T01740147  RH  084%=      5-min Rain = 0
KAD1 140632Z 13024KT 17/15 A3004 RMK A01 T01730147  RH  084%=      5-min Rain = 0
KAD1 140633Z 13022KT 17/15 A3004 RMK A01 T01730147  RH  085%=      5-min Rain = 0
KAD1 140634Z 13023G28KT 17/15 A3004 RMK A01 T01730147  RH  085%=      5-min Rain = 0
KAD1 140635Z 12023KT 17/15 A3004 RMK A01 T01730147  RH  085%=      5-min Rain = 0
KAD1 140636Z 12022KT 17/15 A3004 RMK A01 T01730146  RH  084%=      5-min Rain = 0
KAD1 140637Z 13024G29KT 17/15 A3004 RMK A01 T01720146  RH  084%=      5-min Rain = 0
KAD1 140638Z 13025KT 17/15 A3004 RMK A01 T01730146  RH  084%=      5-min Rain = 0
KAD1 140639Z 13023KT 17/15 A3004 RMK A01 T01720145  RH  084%=      5-min Rain = 0
KAD1 140640Z 13023G28KT 17/15 A3004 RMK A01 T01730145  RH  084%=      5-min Rain = 0
KAD1 140641Z 13023KT 17/15 A3004 RMK A01 T01730145  RH  084%=      5-min Rain = 0
KAD1 140642Z 13025KT 17/15 A3004 RMK A01 T01730145  RH  084%=      5-min Rain = 0
KAD1 140643Z 13024KT 17/15 A3004 RMK A01 T01730145  RH  083%=      5-min Rain = 0
KAD1 140644Z 13021KT 17/14 A3004 RMK A01 T01730144  RH  083%=      5-min Rain = 0
KAD1 140645Z 13023KT 17/15 A3004 RMK A01 T01730145  RH  083%=      5-min Rain = 0
KAD1 140646Z 12023KT 17/14 A3004 RMK A01 T01730144  RH  083%=      5-min Rain = 0
KAD1 140647Z 12022KT 17/15 A3004 RMK A01 T01730145  RH  083%=      5-min Rain = 0
KAD1 140648Z 12021KT 17/15 A3005 RMK A01 T01730145  RH  084%=      5-min Rain = 0
KAD1 140649Z 12021KT 17/15 A3005 RMK A01 T01730145  RH  084%=      5-min Rain = 0
KAD1 140650Z 13023KT 17/15 A3005 RMK A01 T01720145  RH  084%=      5-min Rain = 0
KAD1 140651Z 13024KT 17/15 A3005 RMK A01 T01720145  RH  084%=      5-min Rain = 0
KAD1 140652Z 13025KT 17/15 A3005 RMK A01 T01720145  RH  084%=      5-min Rain = 0
KAD1 140653Z 13021KT 17/15 A3005 RMK A01 T01720145  RH  084%=      5-min Rain = 0
KAD1 140654Z 13019KT 17/15 A3005 RMK A01 T01720145  RH  084%=      5-min Rain = 0
KAD1 140655Z 13023KT 17/15 A3005 RMK A01 T01710145  RH  085%=      5-min Rain = 0
KAD1 140656Z 13021KT 17/15 A3005 RMK A01 T01710145  RH  085%=      5-min Rain = 0
KAD1 140657Z 13022KT 17/15 A3005 RMK A01 T01710146  RH  085%=      5-min Rain = 0
KAD1 140658Z 13020KT 17/15 A3005 RMK A01 T01710145  RH  085%=      5-min Rain = 0
KAD1 140659Z 13021KT 17/15 A3005 RMK A01 T01710146  RH  085%=      5-min Rain = 0
KAD1 140700Z 13023KT 17/15 A3005 RMK A01 T01710146  RH  085%=      5-min Rain = 0
KAD1 140701Z 13022KT 17/15 A3005 RMK A01 T01710146  RH  085%=      5-min Rain = 0
KAD1 140702Z 13022KT 17/15 A3005 RMK A01 T01700146  RH  085%=      5-min Rain = 0
KAD1 140703Z 14021KT 17/15 A3005 RMK A01 T01700146  RH  085%=      5-min Rain = 0
KAD1 140704Z 14021KT 17/15 A3005 RMK A01 T01700146  RH  085%=      5-min Rain = 0
KAD1 140705Z 14021KT 17/15 A3005 RMK A01 T01700146  RH  086%=      5-min Rain = 0
KAD1 140706Z 13021KT 17/15 A3005 RMK A01 T01700146  RH  085%=      5-min Rain = 0
KAD1 140707Z 14023KT 17/15 A3005 RMK A01 T01700146  RH  086%=      5-min Rain = 0
KAD1 140708Z 14022KT 17/15 A3004 RMK A01 T01700146  RH  086%=      5-min Rain = 0
KAD1 140709Z 14024KT 17/15 A3004 RMK A01 T01700146  RH  086%=      5-min Rain = 0
KAD1 140710Z 14023KT 17/15 A3003 RMK A01 T01700146  RH  086%=      5-min Rain = 0
KAD1 140711Z 14024KT 17/15 A3003 RMK A01 T01700146  RH  086%=      5-min Rain = 0
KAD1 140712Z 14024G29KT 17/15 A3003 RMK A01 T01700146  RH  086%=      5-min Rain = 0
KAD1 140713Z 15024KT 17/15 A3002 RMK A01 T01700146  RH  086%=      5-min Rain = 0
KAD1 140714Z 14025KT 17/15 A3002 RMK A01 T01700147  RH  086%=      5-min Rain = 0
KAD1 140715Z 14026KT 17/15 A3002 RMK A01 T01700146  RH  086%=      5-min Rain = 0
KAD1 140716Z 14026KT 17/15 A3002 RMK A01 T01700146  RH  086%=      5-min Rain = 0
KAD1 140717Z 14024KT 17/15 A3001 RMK A01 T01700147  RH  086%=      5-min Rain = 0
KAD1 140718Z 14024KT 17/15 A3001 RMK A01 T01700147  RH  086%=      5-min Rain = 0
KAD1 140719Z 14025KT 17/15 A3001 RMK A01 T01700147  RH  086%=      5-min Rain = 0
KAD1 140720Z 14025G30KT 17/15 A3001 RMK A01 T01700147  RH  086%=      5-min Rain = 0
KAD1 140721Z 14028KT 17/15 A30 RMK A01 T01700146  RH  086%=      5-min Rain = 0
KAD1 140722Z 14027KT 17/15 A30 RMK A01 T01700146  RH  086%=      5-min Rain = 0
KAD1 140723Z 15027KT 17/15 A30 RMK A01 T01700147  RH  086%=      5-min Rain = 0
KAD1 140724Z 14025KT 17/15 A2999 RMK A01 T01700146  RH  086%=      5-min Rain = 0
KAD1 140725Z 14025G30KT 17/15 A2999 RMK A01 T01690146  RH  086%=      5-min Rain = 0
KAD1 140726Z 15025KT 17/15 A2999 RMK A01 T01690146  RH  086%=      5-min Rain = 0
KAD1 140727Z 15025KT 17/15 A2999 RMK A01 T01690146  RH  086%=      5-min Rain = 0
KAD1 140728Z 15027KT 17/15 A2999 RMK A01 T01690146  RH  086%=      5-min Rain = 0
KAD1 140729Z 15026G31KT 17/15 A2998 RMK A01 T01690146  RH  086%=      5-min Rain = 0
KAD1 140730Z 15027G32KT 17/15 A2998 RMK A01 T01690146  RH  086%=      5-min Rain = 0
KAD1 140731Z 16028KT 17/15 A2998 RMK A01 T01690147  RH  087%=      5-min Rain = 0
KAD1 140732Z 16031KT 17/15 A2998 RMK A01 T01690147  RH  087%=      5-min Rain = 0
KAD1 140733Z 15027KT 17/15 A2999 RMK A01 T01700147  RH  087%=      5-min Rain = 0
KAD1 140734Z 15025KT 17/15 A2999 RMK A01 T01700147  RH  086%=      5-min Rain = 0
KAD1 140735Z 15025G30KT 17/15 A2999 RMK A01 T01710147  RH  086%=      5-min Rain = 0
KAD1 140736Z 15024KT 17/15 A2999 RMK A01 T01720148  RH  086%=      5-min Rain = 0
KAD1 140737Z 16023KT 17/15 A30 RMK A01 T01720147  RH  085%=      5-min Rain = 0
KAD1 140738Z 15022G27KT 17/15 A30 RMK A01 T01720148  RH  086%=      5-min Rain = 0
KAD1 140739Z 15022G27KT 17/15 A30 RMK A01 T01720148  RH  086%=      5-min Rain = 0
KAD1 140740Z 15023KT 17/15 A30 RMK A01 T01710148  RH  086%=      5-min Rain = 0
KAD1 140741Z 14024G29KT 17/15 A30 RMK A01 T01690147  RH  087%=      5-min Rain = 0
KAD1 140742Z 14021KT 17/15 A30 RMK A01 T01680147  RH  087%=      5-min Rain = 0
KAD1 140743Z 15019KT 17/15 A30 RMK A01 T01680148  RH  088%=      5-min Rain = 0
KAD1 140744Z 15022KT 17/15 A30 RMK A01 T01680148  RH  088%=      5-min Rain = 0
KAD1 140745Z 15022KT 17/15 A30 RMK A01 T01680148  RH  088%=      5-min Rain = 0
KAD1 140746Z 15023KT 17/15 A30 RMK A01 T01700148  RH  087%=      5-min Rain = 0
KAD1 140747Z 15021KT 17/15 A30 RMK A01 T01700147  RH  086%=      5-min Rain = 0
KAD1 140748Z 15020KT 17/15 A30 RMK A01 T01700147  RH  087%=      5-min Rain = 0
KAD1 140749Z 15021KT 17/15 A30 RMK A01 T01690148  RH  087%=      5-min Rain = 0
KAD1 140750Z 15025KT 17/15 A2999 RMK A01 T01690148  RH  088%=      5-min Rain = 0
KAD1 140751Z 15026KT 17/15 A2999 RMK A01 T01710149  RH  087%=      5-min Rain = 0
KAD1 140752Z 15024KT 17/15 A2999 RMK A01 T01720148  RH  086%=      5-min Rain = 0
KAD1 140753Z 16023KT 17/15 A2999 RMK A01 T01720148  RH  086%=      5-min Rain = 0
KAD1 140754Z 16024KT 17/15 A2999 RMK A01 T01710148  RH  086%=      5-min Rain = 0
KAD1 140755Z 16024KT 17/15 A2999 RMK A01 T01710149  RH  087%=      5-min Rain = 0
KAD1 140756Z 16023G28KT 17/15 A2999 RMK A01 T01710149  RH  087%=      5-min Rain = 0
KAD1 140757Z 16025KT 17/15 A2999 RMK A01 T01720149  RH  087%=      5-min Rain = 0
KAD1 140758Z 16024KT 17/15 A2999 RMK A01 T01720149  RH  086%=      5-min Rain = 0
KAD1 140759Z 16023G28KT 17/15 A2999 RMK A01 T01730149  RH  086%=      5-min Rain = 0
KAD1 140800Z 16025KT 17/15 A2998 RMK A01 T01730149  RH  086%=      5-min Rain = 0
KAD1 140801Z 16020G25KT 17/15 A2998 RMK A01 T01730149  RH  086%=      5-min Rain = 0
KAD1 140802Z 16020KT 17/15 A2998 RMK A01 T01720149  RH  086%=      5-min Rain = 0
KAD1 140803Z 16021G26KT 17/15 A2998 RMK A01 T01710149  RH  087%=      5-min Rain = 0
KAD1 140804Z 16020G25KT 17/15 A2998 RMK A01 T01710150  RH  087%=      5-min Rain = 0
KAD1 140805Z 16022KT 17/15 A2998 RMK A01 T01710149  RH  087%=      5-min Rain = 0
KAD1 140806Z 16023G29KT 17/15 A2998 RMK A01 T01720150  RH  087%=      5-min Rain = 0
KAD1 140807Z 16024KT 17/15 A2998 RMK A01 T01720150  RH  087%=      5-min Rain = 0
KAD1 140808Z 16025KT 17/15 A2998 RMK A01 T01730150  RH  086%=      5-min Rain = 0
KAD1 140809Z 16024KT 17/15 A2998 RMK A01 T01730150  RH  086%=      5-min Rain = 0
KAD1 140810Z 16024KT 17/15 A2998 RMK A01 T01730149  RH  086%=      5-min Rain = 0
KAD1 140811Z 16024KT 17/15 A2998 RMK A01 T01720149  RH  086%=      5-min Rain = 0
KAD1 140812Z 16022G27KT 17/15 A2998 RMK A01 T01720149  RH  087%=      5-min Rain = 0
KAD1 140813Z 17021KT 17/15 A2998 RMK A01 T01710149  RH  087%=      5-min Rain = 0
KAD1 140814Z 17023KT 17/15 A2998 RMK A01 T01710149  RH  087%=      5-min Rain = 0
KAD1 140815Z 16026G31KT 17/15 A2997 RMK A01 T01710150  RH  087%=      5-min Rain = 0
KAD1 140816Z 17024G29KT 17/15 A2997 RMK A01 T01710150  RH  087%=      5-min Rain = 0
KAD1 140817Z 17023G29KT 17/15 A2997 RMK A01 T01710150  RH  087%=      5-min Rain = 0
KAD1 140818Z 16024KT 17/15 A2997 RMK A01 T01710150  RH  087%=      5-min Rain = 0
KAD1 140819Z 17025KT 17/15 A2997 RMK A01 T01710150  RH  087%=      5-min Rain = 0
KAD1 140820Z 17026G31KT 17/15 A2997 RMK A01 T01710150  RH  087%=      5-min Rain = 0
KAD1 140821Z 16024G29KT 17/15 A2997 RMK A01 T01710150  RH  087%=      5-min Rain = 0
KAD1 140822Z 17023G29KT 17/15 A2997 RMK A01 T01710150  RH  088%=      5-min Rain = 0
KAD1 140823Z 17024G29KT 17/15 A2997 RMK A01 T01710150  RH  088%=      5-min Rain = 0
KAD1 140824Z 16022KT 17/15 A2997 RMK A01 T01700150  RH  088%=      5-min Rain = 0
KAD1 140825Z 16024G29KT 17/15 A2997 RMK A01 T01700150  RH  088%=      5-min Rain = 0
KAD1 140826Z 17023G28KT 17/15 A2997 RMK A01 T01690150  RH  089%=      5-min Rain = 0
KAD1 140827Z 17022G27KT 17/15 A2997 RMK A01 T01690150  RH  089%=      5-min Rain = 0
KAD1 140828Z 17024KT 17/15 A2997 RMK A01 T01690150  RH  089%=      5-min Rain = 0
KAD1 140829Z 17026KT 17/15 A2997 RMK A01 T01690150  RH  089%=      5-min Rain = 0
KAD1 140830Z 17026KT 17/15 A2997 RMK A01 T01680150  RH  089%=      5-min Rain = 0
KAD1 140831Z 17025KT 17/15 A2997 RMK A01 T01690150  RH  089%=      5-min Rain = 0
KAD1 140832Z 17022KT 17/15 A2997 RMK A01 T01680150  RH  089%=      5-min Rain = 0
KAD1 140833Z 17024KT 17/15 A2997 RMK A01 T01680150  RH  089%=      5-min Rain = 0
KAD1 140834Z 17023KT 17/15 A2997 RMK A01 T01680151  RH  090%=      5-min Rain = 0
KAD1 140835Z 17022KT 17/15 A2997 RMK A01 T01670151  RH  090%=      5-min Rain = 0
KAD1 140836Z 17022KT 17/15 A2997 RMK A01 T01670150  RH  090%=      5-min Rain = 0
KAD1 140837Z 17022G28KT 17/15 A2997 RMK A01 T01670151  RH  090%=      5-min Rain = 0
KAD1 140838Z 17024KT 17/15 A2997 RMK A01 T01670151  RH  090%=      5-min Rain = 0
KAD1 140839Z 17022KT 17/15 A2997 RMK A01 T01670151  RH  090%=      5-min Rain = 0
KAD1 140840Z 17022G27KT 17/15 A2997 RMK A01 T01670151  RH  090%=      5-min Rain = 0
KAD1 140841Z 17021KT 17/15 A2997 RMK A01 T01660150  RH  091%=      5-min Rain = 0
KAD1 140842Z 17021KT 17/15 A2997 RMK A01 T01650151  RH  091%=      5-min Rain = 0
KAD1 140843Z 17023KT 17/15 A2996 RMK A01 T01650150  RH  091%=      5-min Rain = 0
KAD1 140844Z 17021KT 17/15 A2996 RMK A01 T01650151  RH  091%=      5-min Rain = 0
KAD1 140845Z 17022KT 17/15 A2996 RMK A01 T01650151  RH  091%=      5-min Rain = 0
KAD1 140846Z 17021KT 17/15 A2996 RMK A01 T01650151  RH  091%=      5-min Rain = 0
KAD1 140847Z 16021KT 17/15 A2996 RMK A01 T01650151  RH  092%=      5-min Rain = 0
KAD1 140848Z 16021G26KT 17/15 A2996 RMK A01 T01650151  RH  092%=      5-min Rain = 0
KAD1 140849Z 17022KT 16/15 A2996 RMK A01 T01640151  RH  092%=      5-min Rain = 0
KAD1 140850Z 17022KT 16/15 A2996 RMK A01 T01640151  RH  092%=      5-min Rain = 0
KAD1 140851Z 17023KT 16/15 A2996 RMK A01 T01640151  RH  092%=      5-min Rain = 0
KAD1 140852Z 17020G26KT 16/15 A2996 RMK A01 T01640151  RH  092%=      5-min Rain = 0
KAD1 140853Z 17022KT 17/15 A2996 RMK A01 T01650151  RH  092%=      5-min Rain = 0
KAD1 140854Z 16020G25KT 16/15 A2996 RMK A01 T01640151  RH  092%=      5-min Rain = 0
KAD1 140855Z 17022KT 17/15 A2995 RMK A01 T01650151  RH  092%=      5-min Rain = 0
KAD1 140856Z 17020KT 16/15 A2995 RMK A01 T01640151  RH  092%=      5-min Rain = 0
KAD1 140857Z 16021KT 16/15 A2995 RMK A01 T01640151  RH  092%=      5-min Rain = 0
KAD1 140858Z 17021G26KT 16/15 A2995 RMK A01 T01640150  RH  091%=      5-min Rain = 0
KAD1 140859Z 17020G26KT 16/15 A2995 RMK A01 T01640150  RH  091%=      5-min Rain = 0
KAD1 140900Z 17021KT 16/15 A2995 RMK A01 T01640150  RH  091%=      5-min Rain = 0
KAD1 140901Z 17021G26KT 16/15 A2995 RMK A01 T01640150  RH  091%=      5-min Rain = 0
KAD1 140902Z 17021KT 16/15 A2995 RMK A01 T01640150  RH  091%=      5-min Rain = 0
KAD1 140903Z 17019KT 16/15 A2995 RMK A01 T01640149  RH  091%=      5-min Rain = 0
KAD1 140904Z 17020KT 16/15 A2995 RMK A01 T01640149  RH  091%=      5-min Rain = 0
KAD1 140905Z 17021KT 16/15 A2995 RMK A01 T01640149  RH  091%=      5-min Rain = 0
KAD1 140906Z 17022KT 16/15 A2995 RMK A01 T01640149  RH  091%=      5-min Rain = 0
KAD1 140907Z 17022KT 16/15 A2995 RMK A01 T01640149  RH  091%=      5-min Rain = 0
KAD1 140908Z 16020KT 16/15 A2995 RMK A01 T01640149  RH  091%=      5-min Rain = 0
KAD1 140909Z 16021KT 17/15 A2995 RMK A01 T01650149  RH  090%=      5-min Rain = 0
KAD1 140910Z 17023KT 17/15 A2994 RMK A01 T01650149  RH  090%=      5-min Rain = 0
KAD1 140911Z 17022KT 17/15 A2994 RMK A01 T01650149  RH  090%=      5-min Rain = 0
KAD1 140912Z 17023G28KT 17/15 A2994 RMK A01 T01650148  RH  090%=      5-min Rain = 0
KAD1 140913Z 17022G27KT 17/15 A2994 RMK A01 T01650148  RH  090%=      5-min Rain = 0
KAD1 140914Z 17024KT 17/15 A2994 RMK A01 T01650148  RH  089%=      5-min Rain = 0
KAD1 140915Z 17025KT 17/15 A2994 RMK A01 T01650147  RH  089%=      5-min Rain = 0
KAD1 140916Z 17024G29KT 17/15 A2994 RMK A01 T01650147  RH  089%=      5-min Rain = 0
KAD1 140917Z 17022KT 17/15 A2994 RMK A01 T01650147  RH  089%=      5-min Rain = 0
KAD1 140918Z 17025G30KT 17/15 A2994 RMK A01 T01650147  RH  089%=      5-min Rain = 0
KAD1 140919Z 17024KT 17/15 A2994 RMK A01 T01650146  RH  089%=      5-min Rain = 0
KAD1 140920Z 17025KT 17/15 A2994 RMK A01 T01650146  RH  089%=      5-min Rain = 0
KAD1 140921Z 17024G29KT 17/15 A2994 RMK A01 T01650146  RH  088%=      5-min Rain = 0
KAD1 140922Z 17025G30KT 17/15 A2994 RMK A01 T01660146  RH  088%=      5-min Rain = 0
KAD1 140923Z 17022KT 17/15 A2994 RMK A01 T01660146  RH  088%=      5-min Rain = 0
KAD1 140924Z 17022G28KT 17/15 A2994 RMK A01 T01660146  RH  088%=      5-min Rain = 0
KAD1 140925Z 17023G28KT 17/15 A2994 RMK A01 T01660146  RH  088%=      5-min Rain = 0
KAD1 140926Z 17024KT 17/15 A2994 RMK A01 T01650145  RH  088%=      5-min Rain = 0
KAD1 140927Z 17023KT 17/15 A2994 RMK A01 T01650145  RH  088%=      5-min Rain = 0
KAD1 140928Z 17027KT 17/15 A2993 RMK A01 T01650145  RH  088%=      5-min Rain = 0
KAD1 140929Z 17025KT 17/14 A2994 RMK A01 T01650144  RH  088%=      5-min Rain = 0
KAD1 140930Z 17024KT 17/14 A2994 RMK A01 T01650144  RH  087%=      5-min Rain = 0
KAD1 140931Z 17023KT 17/15 A2994 RMK A01 T01650145  RH  088%=      5-min Rain = 0
KAD1 140932Z 17025G30KT 17/14 A2994 RMK A01 T01650144  RH  087%=      5-min Rain = 0
KAD1 140933Z 17022KT 17/14 A2994 RMK A01 T01650144  RH  087%=      5-min Rain = 0
KAD1 140934Z 17021KT 16/14 A2994 RMK A01 T01640144  RH  088%=      5-min Rain = 0
KAD1 140935Z 17023KT 16/14 A2994 RMK A01 T01640143  RH  088%=      5-min Rain = 0
KAD1 140936Z 17021KT 16/14 A2994 RMK A01 T01640144  RH  088%=      5-min Rain = 0
KAD1 140937Z 17023KT 16/14 A2994 RMK A01 T01630143  RH  088%=      5-min Rain = 0
KAD1 140938Z 17021KT 16/14 A2994 RMK A01 T01620143  RH  088%=      5-min Rain = 0
KAD1 140939Z 17023KT 16/14 A2994 RMK A01 T01620143  RH  088%=      5-min Rain = 0
KAD1 140940Z 18023KT 16/14 A2994 RMK A01 T01620142  RH  088%=      5-min Rain = 0
KAD1 140941Z 17025KT 16/14 A2994 RMK A01 T01610142  RH  089%=      5-min Rain = 0
KAD1 140942Z 17025KT 16/14 A2994 RMK A01 T01610142  RH  089%=      5-min Rain = 0
KAD1 140943Z 17024G30KT 16/14 A2994 RMK A01 T01600142  RH  089%=      5-min Rain = 0
KAD1 140944Z 17022G28KT 16/14 A2994 RMK A01 T01600142  RH  089%=      5-min Rain = 0
KAD1 140945Z 17025KT 16/14 A2994 RMK A01 T01600142  RH  089%=      5-min Rain = 0
KAD1 140946Z 17024G30KT 16/14 A2994 RMK A01 T01600142  RH  089%=      5-min Rain = 0
KAD1 140947Z 17024KT 16/14 A2994 RMK A01 T01600142  RH  089%=      5-min Rain = 0
KAD1 140948Z 17024KT 16/14 A2994 RMK A01 T01590142  RH  089%=      5-min Rain = 0
KAD1 140949Z 17023KT 16/14 A2994 RMK A01 T01590141  RH  089%=      5-min Rain = 0
KAD1 140950Z 17024KT 16/14 A2994 RMK A01 T01590141  RH  089%=      5-min Rain = 0
KAD1 140951Z 17023KT 16/14 A2993 RMK A01 T01590141  RH  089%=      5-min Rain = 0
KAD1 140952Z 17024KT 16/14 A2993 RMK A01 T01590141  RH  089%=      5-min Rain = 0
KAD1 140953Z 17024G30KT 16/14 A2993 RMK A01 T01590141  RH  089%=      5-min Rain = 0
KAD1 140954Z 17024KT 16/14 A2994 RMK A01 T01590141  RH  089%=      5-min Rain = 0
KAD1 140955Z 17022KT 16/14 A2994 RMK A01 T01590141  RH  089%=      5-min Rain = 0
KAD1 140956Z 17023KT 16/14 A2993 RMK A01 T01580141  RH  089%=      5-min Rain = 0
KAD1 140957Z 17022KT 16/14 A2993 RMK A01 T01590142  RH  090%=      5-min Rain = 0
KAD1 140958Z 17023KT 16/14 A2993 RMK A01 T01580141  RH  090%=      5-min Rain = 0
KAD1 140959Z 17023KT 16/14 A2993 RMK A01 T01580141  RH  090%=      5-min Rain = 0
KAD1 141000Z 17023KT 16/14 A2993 RMK A01 T01580141  RH  090%=      5-min Rain = 0
KAD1 141001Z 17022KT 16/14 A2993 RMK A01 T01580141  RH  090%=      5-min Rain = 0
KAD1 141002Z 17022KT 16/14 A2993 RMK A01 T01580141  RH  090%=      5-min Rain = 0
KAD1 141003Z 17023KT 16/14 A2993 RMK A01 T01580141  RH  090%=      5-min Rain = 0
KAD1 141004Z 17021KT 16/14 A2993 RMK A01 T01580141  RH  090%=      5-min Rain = 0
KAD1 141005Z 17021KT 16/14 A2993 RMK A01 T01570141  RH  090%=      5-min Rain = 0
KAD1 141006Z 17019G24KT 16/14 A2993 RMK A01 T01570141  RH  090%=      5-min Rain = 0
KAD1 141007Z 17022KT 16/14 A2993 RMK A01 T01580142  RH  090%=      5-min Rain = 0
KAD1 141008Z 17020KT 16/14 A2993 RMK A01 T01570142  RH  090%=      5-min Rain = 0
KAD1 141009Z 17022KT 16/14 A2993 RMK A01 T01580142  RH  090%=      5-min Rain = 0
KAD1 141010Z 17020KT 16/14 A2993 RMK A01 T01580142  RH  091%=      5-min Rain = 0
KAD1 141011Z 17020KT 16/14 A2993 RMK A01 T01570142  RH  091%=      5-min Rain = 0
KAD1 141012Z 17020KT 16/14 A2993 RMK A01 T01570142  RH  091%=      5-min Rain = 0
KAD1 141013Z 17019KT 16/14 A2993 RMK A01 T01570142  RH  091%=      5-min Rain = 0
KAD1 141014Z 18020KT 16/14 A2993 RMK A01 T01570142  RH  091%=      5-min Rain = 0
KAD1 141015Z 17019KT 16/14 A2993 RMK A01 T01570142  RH  091%=      5-min Rain = 0
KAD1 141016Z 17019G24KT 16/14 A2993 RMK A01 T01570142  RH  091%=      5-min Rain = 0
KAD1 141017Z 17020KT 16/14 A2993 RMK A01 T01570143  RH  091%=      5-min Rain = 0
KAD1 141018Z 18019KT 16/14 A2993 RMK A01 T01580143  RH  091%=      5-min Rain = 0
KAD1 141019Z 17020G25KT 16/14 A2993 RMK A01 T01580143  RH  091%=      5-min Rain = 0
KAD1 141020Z 17021KT 16/14 A2993 RMK A01 T01580144  RH  091%=      5-min Rain = 0
KAD1 141021Z 18020KT 16/14 A2993 RMK A01 T01590144  RH  091%=      5-min Rain = 0
KAD1 141022Z 17019KT 16/14 A2993 RMK A01 T01590144  RH  091%=      5-min Rain = 0
KAD1 141023Z 17021KT 16/14 A2993 RMK A01 T01590144  RH  091%=      5-min Rain = 0
KAD1 141024Z 17021KT 16/14 A2993 RMK A01 T01600144  RH  091%=      5-min Rain = 0
KAD1 141025Z 18021KT 16/15 A2993 RMK A01 T01600145  RH  090%=      5-min Rain = 0
KAD1 141026Z 18021KT 16/14 A2993 RMK A01 T01600144  RH  090%=      5-min Rain = 0
KAD1 141027Z 18020G25KT 16/14 A2993 RMK A01 T01600144  RH  090%=      5-min Rain = 0
KAD1 141028Z 18019KT 16/14 A2993 RMK A01 T01610144  RH  090%=      5-min Rain = 0
KAD1 141029Z 18019G25KT 16/14 A2993 RMK A01 T01610144  RH  090%=      5-min Rain = 0
KAD1 141030Z 18020KT 16/14 A2993 RMK A01 T01610144  RH  090%=      5-min Rain = 0
KAD1 141031Z 18021KT 16/14 A2993 RMK A01 T01610144  RH  090%=      5-min Rain = 0
KAD1 141032Z 18020KT 16/14 A2993 RMK A01 T01610144  RH  090%=      5-min Rain = 0
KAD1 141033Z 18021KT 16/14 A2993 RMK A01 T01610144  RH  090%=      5-min Rain = 0
KAD1 141034Z 18021G26KT 16/14 A2992 RMK A01 T01610144  RH  090%=      5-min Rain = 0
KAD1 141035Z 17023KT 16/14 A2992 RMK A01 T01610144  RH  090%=      5-min Rain = 0
KAD1 141036Z 18021KT 16/14 A2992 RMK A01 T01610144  RH  090%=      5-min Rain = 0
KAD1 141037Z 18021KT 16/14 A2993 RMK A01 T01610144  RH  090%=      5-min Rain = 0
KAD1 141038Z 17022KT 16/14 A2993 RMK A01 T01610144  RH  090%=      5-min Rain = 0
KAD1 141039Z 18023KT 16/14 A2993 RMK A01 T01610144  RH  090%=      5-min Rain = 0
KAD1 141040Z 18021KT 16/14 A2993 RMK A01 T01610144  RH  090%=      5-min Rain = 0
KAD1 141041Z 18021G26KT 16/14 A2993 RMK A01 T01610144  RH  090%=      5-min Rain = 0
KAD1 141042Z 18019KT 16/14 A2993 RMK A01 T01610144  RH  090%=      5-min Rain = 0
KAD1 141043Z 18020KT 16/14 A2993 RMK A01 T01610144  RH  090%=      5-min Rain = 0
KAD1 141044Z 18020KT 16/14 A2993 RMK A01 T01610144  RH  090%=      5-min Rain = 0
KAD1 141045Z 18018KT 16/14 A2993 RMK A01 T01610144  RH  090%=      5-min Rain = 0
KAD1 141046Z 18019KT 16/14 A2993 RMK A01 T01610144  RH  090%=      5-min Rain = 0
KAD1 141047Z 18019KT 16/14 A2994 RMK A01 T01600143  RH  090%=      5-min Rain = 0
KAD1 141048Z 18018KT 16/14 A2993 RMK A01 T01600144  RH  090%=      5-min Rain = 0
KAD1 141049Z 18018KT 16/14 A2994 RMK A01 T01600143  RH  090%=      5-min Rain = 0
KAD1 141050Z 18017KT 16/14 A2994 RMK A01 T01600144  RH  090%=      5-min Rain = 0
KAD1 141051Z 18018KT 16/14 A2994 RMK A01 T01600143  RH  090%=      5-min Rain = 0
KAD1 141052Z 18018KT 16/14 A2994 RMK A01 T01600144  RH  090%=      5-min Rain = 0
KAD1 141053Z 18017KT 16/14 A2994 RMK A01 T01600143  RH  090%=      5-min Rain = 0
KAD1 141054Z 19017KT 16/14 A2994 RMK A01 T01600143  RH  090%=      5-min Rain = 0
KAD1 141055Z 18017KT 16/14 A2994 RMK A01 T01590143  RH  090%=      5-min Rain = 0
KAD1 141056Z 19018KT 16/14 A2994 RMK A01 T01600143  RH  090%=      5-min Rain = 0
KAD1 141057Z 18018KT 16/14 A2994 RMK A01 T01590143  RH  090%=      5-min Rain = 0
KAD1 141058Z 18017KT 16/14 A2994 RMK A01 T01590143  RH  090%=      5-min Rain = 0
KAD1 141059Z 18016KT 16/14 A2993 RMK A01 T01590143  RH  090%=      5-min Rain = 0
KAD1 141100Z 18016KT 16/14 A2993 RMK A01 T01590143  RH  090%=      5-min Rain = 0
KAD1 141101Z 19016KT 16/14 A2993 RMK A01 T01590143  RH  090%=      5-min Rain = 0
KAD1 141102Z 18016KT 16/14 A2993 RMK A01 T01590143  RH  090%=      5-min Rain = 0
KAD1 141103Z 18017KT 16/14 A2993 RMK A01 T01600143  RH  090%=      5-min Rain = 0
KAD1 141104Z 18019KT 16/14 A2993 RMK A01 T01600143  RH  090%=      5-min Rain = 0
KAD1 141105Z 19019KT 16/14 A2993 RMK A01 T01600144  RH  090%=      5-min Rain = 0
KAD1 141106Z 19017KT 16/14 A2993 RMK A01 T01610144  RH  090%=      5-min Rain = 0
KAD1 141107Z 18018KT 16/14 A2993 RMK A01 T01610144  RH  090%=      5-min Rain = 0
KAD1 141108Z 18018KT 16/14 A2993 RMK A01 T01600143  RH  090%=      5-min Rain = 0
KAD1 141109Z 19018KT 16/14 A2993 RMK A01 T01600144  RH  090%=      5-min Rain = 0
KAD1 141110Z 18018KT 16/14 A2993 RMK A01 T01600144  RH  090%=      5-min Rain = 0
KAD1 141111Z 19018KT 16/14 A2993 RMK A01 T01600144  RH  090%=      5-min Rain = 0
KAD1 141112Z 19017KT 16/14 A2993 RMK A01 T01600144  RH  090%=      5-min Rain = 0
KAD1 141113Z 19017KT 16/14 A2993 RMK A01 T01600144  RH  090%=      5-min Rain = 0
KAD1 141114Z 19018KT 16/14 A2993 RMK A01 T01600144  RH  090%=      5-min Rain = 0
KAD1 141115Z 19018KT 16/14 A2993 RMK A01 T01600144  RH  090%=      5-min Rain = 0
KAD1 141116Z 19018KT 16/14 A2993 RMK A01 T01600144  RH  090%=      5-min Rain = 0
KAD1 141117Z 19018KT 16/14 A2993 RMK A01 T01610144  RH  090%=      5-min Rain = 0
KAD1 141118Z 19019KT 16/14 A2993 RMK A01 T01610144  RH  090%=      5-min Rain = 0
KAD1 141119Z 19018KT 16/14 A2993 RMK A01 T01610144  RH  090%=      5-min Rain = 0
KAD1 141120Z 19018KT 16/14 A2993 RMK A01 T01610144  RH  090%=      5-min Rain = 0
KAD1 141121Z 19019KT 16/14 A2993 RMK A01 T01610144  RH  090%=      5-min Rain = 0
KAD1 141122Z 19018KT 16/14 A2993 RMK A01 T01610144  RH  090%=      5-min Rain = 0
KAD1 141123Z 19018KT 16/14 A2993 RMK A01 T01610144  RH  090%=      5-min Rain = 0
KAD1 141124Z 19018KT 16/14 A2992 RMK A01 T01610144  RH  090%=      5-min Rain = 0
KAD1 141125Z 19017KT 16/14 A2992 RMK A01 T01610144  RH  090%=      5-min Rain = 0
KAD1 141126Z 19017KT 16/15 A2992 RMK A01 T01610145  RH  090%=      5-min Rain = 0
KAD1 141127Z 19017KT 16/14 A2992 RMK A01 T01600144  RH  090%=      5-min Rain = 0
KAD1 141128Z 19019KT 16/14 A2992 RMK A01 T01600144  RH  090%=      5-min Rain = 0
KAD1 141129Z 19018KT 16/15 A2992 RMK A01 T01600145  RH  090%=      5-min Rain = 0
KAD1 141130Z 19019KT 16/15 A2992 RMK A01 T01610145  RH  090%=      5-min Rain = 0
KAD1 141131Z 19018KT 16/15 A2992 RMK A01 T01610145  RH  090%=      5-min Rain = 0
KAD1 141132Z 19018KT 16/15 A2992 RMK A01 T01610145  RH  090%=      5-min Rain = 0
KAD1 141133Z 19018KT 16/15 A2992 RMK A01 T01610145  RH  090%=      5-min Rain = 0
KAD1 141134Z 19019KT 16/15 A2992 RMK A01 T01620145  RH  090%=      5-min Rain = 0
KAD1 141135Z 19018KT 16/15 A2993 RMK A01 T01620145  RH  090%=      5-min Rain = 0
KAD1 141136Z 19017KT 16/15 A2993 RMK A01 T01620145  RH  090%=      5-min Rain = 0
KAD1 141137Z 19017KT 16/15 A2993 RMK A01 T01620145  RH  090%=      5-min Rain = 0
KAD1 141138Z 19017KT 16/15 A2993 RMK A01 T01620145  RH  090%=      5-min Rain = 0
KAD1 141139Z 19018KT 16/15 A2993 RMK A01 T01620145  RH  089%=      5-min Rain = 0
KAD1 141140Z 19017KT 16/15 A2993 RMK A01 T01630145  RH  089%=      5-min Rain = 0
KAD1 141141Z 19019KT 16/15 A2993 RMK A01 T01620145  RH  089%=      5-min Rain = 0
KAD1 141142Z 19018KT 16/15 A2993 RMK A01 T01630145  RH  089%=      5-min Rain = 0
KAD1 141143Z 19018KT 16/15 A2993 RMK A01 T01630145  RH  089%=      5-min Rain = 0
KAD1 141144Z 19018KT 16/15 A2993 RMK A01 T01630145  RH  089%=      5-min Rain = 0
KAD1 141145Z 19019KT 16/15 A2993 RMK A01 T01640145  RH  089%=      5-min Rain = 0
KAD1 141146Z 19018KT 16/14 A2993 RMK A01 T01630144  RH  088%=      5-min Rain = 0
KAD1 141147Z 19017KT 16/15 A2993 RMK A01 T01640145  RH  088%=      5-min Rain = 0
KAD1 141148Z 19018KT 16/15 A2993 RMK A01 T01630145  RH  089%=      5-min Rain = 0
KAD1 141149Z 19017KT 16/14 A2993 RMK A01 T01630144  RH  089%=      5-min Rain = 0
KAD1 141150Z 19017KT 16/15 A2993 RMK A01 T01630145  RH  089%=      5-min Rain = 0
KAD1 141151Z 19015KT 16/15 A2994 RMK A01 T01640145  RH  089%=      5-min Rain = 0
KAD1 141152Z 19018KT 16/14 A2994 RMK A01 T01630144  RH  089%=      5-min Rain = 0
KAD1 141153Z 19017KT 16/14 A2994 RMK A01 T01630144  RH  089%=      5-min Rain = 0
KAD1 141154Z 19017KT 16/15 A2994 RMK A01 T01640145  RH  089%=      5-min Rain = 0
KAD1 141155Z 19018KT 16/15 A2994 RMK A01 T01640145  RH  089%=      5-min Rain = 0
KAD1 141156Z 19018KT 16/15 A2994 RMK A01 T01640145  RH  089%=      5-min Rain = 0
KAD1 141157Z 19017KT 16/15 A2994 RMK A01 T01640145  RH  088%=      5-min Rain = 0
KAD1 141158Z 19018KT 16/15 A2994 RMK A01 T01640145  RH  088%=      5-min Rain = 0
KAD1 141159Z 19016KT 16/15 A2994 RMK A01 T01640145  RH  089%=      5-min Rain = 0
KAD1 141200Z 19016KT 16/15 A2994 RMK A01 T01640145  RH  089%=      5-min Rain = 0
KAD1 141201Z 19015KT 16/15 A2994 RMK A01 T01630145  RH  089%=      5-min Rain = 0
KAD1 141202Z 19016KT 16/15 A2994 RMK A01 T01630145  RH  089%=      5-min Rain = 0
KAD1 141203Z 20016KT 16/15 A2994 RMK A01 T01630145  RH  089%=      5-min Rain = 0
KAD1 141204Z 19015KT 16/15 A2994 RMK A01 T01630145  RH  089%=      5-min Rain = 0
KAD1 141205Z 19016KT 16/15 A2994 RMK A01 T01630145  RH  089%=      5-min Rain = 0
KAD1 141206Z 20016KT 16/15 A2994 RMK A01 T01630145  RH  089%=      5-min Rain = 0
KAD1 141207Z 20016KT 16/15 A2994 RMK A01 T01630145  RH  089%=      5-min Rain = 0
KAD1 141208Z 20015KT 16/15 A2994 RMK A01 T01640145  RH  089%=      5-min Rain = 0
KAD1 141209Z 20013KT 16/15 A2994 RMK A01 T01640145  RH  089%=      5-min Rain = 0
KAD1 141210Z 21013KT 16/15 A2994 RMK A01 T01640145  RH  089%=      5-min Rain = 0
KAD1 141211Z 20013KT 16/15 A2994 RMK A01 T01640145  RH  089%=      5-min Rain = 0
KAD1 141212Z 20012KT 16/15 A2994 RMK A01 T01640145  RH  089%=      5-min Rain = 0
KAD1 141213Z 21013KT 17/15 A2994 RMK A01 T01650145  RH  088%=      5-min Rain = 0
KAD1 141214Z 20015G20KT 17/15 A2994 RMK A01 T01650145  RH  088%=      5-min Rain = 0
KAD1 141215Z 20015G21KT 17/15 A2994 RMK A01 T01660145  RH  087%=      5-min Rain = 0
KAD1 141216Z 20015KT 17/15 A2994 RMK A01 T01670145  RH  087%=      5-min Rain = 0
KAD1 141217Z 20015KT 17/15 A2994 RMK A01 T01680145  RH  086%=      5-min Rain = 0
KAD1 141218Z 20015KT 17/15 A2994 RMK A01 T01690145  RH  086%=      5-min Rain = 0
KAD1 141219Z 20017KT 17/15 A2994 RMK A01 T01690145  RH  086%=      5-min Rain = 0
KAD1 141220Z 20017KT 17/15 A2994 RMK A01 T01700145  RH  085%=      5-min Rain = 0
KAD1 141221Z 20016KT 17/14 A2994 RMK A01 T01700144  RH  085%=      5-min Rain = 0
KAD1 141222Z 20016KT 17/15 A2994 RMK A01 T01700145  RH  085%=      5-min Rain = 0
KAD1 141223Z 20016KT 17/14 A2994 RMK A01 T01700144  RH  085%=      5-min Rain = 0
KAD1 141224Z 20016KT 17/14 A2994 RMK A01 T01710144  RH  085%=      5-min Rain = 0
KAD1 141225Z 20014KT 17/14 A2994 RMK A01 T01710144  RH  084%=      5-min Rain = 0
KAD1 141226Z 20015KT 17/15 A2994 RMK A01 T01710145  RH  084%=      5-min Rain = 0
KAD1 141227Z 20017KT 17/15 A2994 RMK A01 T01720145  RH  084%=      5-min Rain = 0
KAD1 141228Z 20017KT 17/14 A2994 RMK A01 T01710144  RH  084%=      5-min Rain = 0
KAD1 141229Z 20016KT 17/14 A2994 RMK A01 T01720144  RH  084%=      5-min Rain = 0
KAD1 141230Z 20017KT 17/14 A2994 RMK A01 T01720144  RH  084%=      5-min Rain = 0
KAD1 141231Z 20015KT 17/14 A2995 RMK A01 T01730144  RH  083%=      5-min Rain = 0
KAD1 141232Z 20015KT 17/14 A2995 RMK A01 T01730144  RH  083%=      5-min Rain = 0
KAD1 141233Z 20014KT 17/15 A2995 RMK A01 T01720145  RH  084%=      5-min Rain = 0
KAD1 141234Z 20015KT 17/14 A2995 RMK A01 T01720144  RH  084%=      5-min Rain = 0
KAD1 141235Z 20013KT 17/14 A2995 RMK A01 T01720144  RH  084%=      5-min Rain = 0
KAD1 141236Z 20015KT 17/14 A2995 RMK A01 T01720144  RH  083%=      5-min Rain = 0
KAD1 141237Z 20014KT 17/14 A2995 RMK A01 T01730144  RH  083%=      5-min Rain = 0
KAD1 141238Z 20015KT 17/14 A2995 RMK A01 T01730144  RH  083%=      5-min Rain = 0
KAD1 141239Z 20016KT 17/14 A2995 RMK A01 T01730144  RH  083%=      5-min Rain = 0
KAD1 141240Z 21013KT 17/14 A2995 RMK A01 T01730144  RH  083%=      5-min Rain = 0
KAD1 141241Z 20013KT 17/15 A2995 RMK A01 T01730145  RH  084%=      5-min Rain = 0
KAD1 141242Z 20013KT 17/15 A2995 RMK A01 T01730145  RH  083%=      5-min Rain = 0
KAD1 141243Z 20015KT 17/15 A2995 RMK A01 T01740145  RH  083%=      5-min Rain = 0
KAD1 141244Z 20013KT 17/15 A2995 RMK A01 T01740145  RH  083%=      5-min Rain = 0
KAD1 141245Z 20014KT 18/15 A2995 RMK A01 T01750145  RH  083%=      5-min Rain = 0
KAD1 141246Z 20014KT 18/15 A2995 RMK A01 T01750145  RH  082%=      5-min Rain = 0
KAD1 141247Z 20013KT 18/15 A2995 RMK A01 T01760145  RH  082%=      5-min Rain = 0
KAD1 141248Z 21015KT 18/15 A2995 RMK A01 T01770145  RH  081%=      5-min Rain = 0
KAD1 141249Z 21014KT 18/15 A2995 RMK A01 T01780145  RH  081%=      5-min Rain = 0
KAD1 141250Z 21014KT 18/15 A2995 RMK A01 T01790145  RH  081%=      5-min Rain = 0
KAD1 141251Z 21014KT 18/15 A2995 RMK A01 T01790145  RH  081%=      5-min Rain = 0
KAD1 141252Z 20014KT 18/15 A2995 RMK A01 T01790145  RH  080%=      5-min Rain = 0
KAD1 141253Z 20015KT 18/15 A2995 RMK A01 T01790145  RH  080%=      5-min Rain = 0
KAD1 141254Z 20015KT 18/15 A2995 RMK A01 T01800145  RH  080%=      5-min Rain = 0
KAD1 141255Z 20016KT 18/14 A2995 RMK A01 T01800144  RH  079%=      5-min Rain = 0
KAD1 141256Z 20016KT 18/15 A2995 RMK A01 T01810145  RH  079%=      5-min Rain = 0
KAD1 141257Z 20016KT 18/14 A2995 RMK A01 T01820144  RH  079%=      5-min Rain = 0
KAD1 141258Z 20014KT 18/15 A2995 RMK A01 T01820145  RH  079%=      5-min Rain = 0
KAD1 141259Z 20016KT 18/15 A2995 RMK A01 T01830145  RH  078%=      5-min Rain = 0
KAD1 141300Z 20014KT 18/14 A2995 RMK A01 T01830144  RH  078%=      5-min Rain = 0
KAD1 141301Z 20015KT 18/14 A2995 RMK A01 T01830144  RH  078%=      5-min Rain = 0
KAD1 141302Z 20015KT 18/14 A2995 RMK A01 T01830143  RH  078%=      5-min Rain = 0
KAD1 141303Z 20017KT 18/14 A2995 RMK A01 T01820143  RH  078%=      5-min Rain = 0
KAD1 141304Z 20015KT 18/14 A2995 RMK A01 T01820142  RH  078%=      5-min Rain = 0
KAD1 141305Z 20017KT 18/14 A2995 RMK A01 T01810142  RH  078%=      5-min Rain = 0
KAD1 141306Z 20016KT 18/14 A2995 RMK A01 T01820142  RH  077%=      5-min Rain = 0
KAD1 141307Z 20015KT 18/14 A2995 RMK A01 T01820142  RH  077%=      5-min Rain = 0
KAD1 141308Z 20015KT 18/14 A2995 RMK A01 T01830142  RH  077%=      5-min Rain = 0
KAD1 141309Z 20013KT 18/14 A2995 RMK A01 T01820142  RH  077%=      5-min Rain = 0
KAD1 141310Z 20015KT 18/14 A2995 RMK A01 T01820141  RH  077%=      5-min Rain = 0
KAD1 141311Z 20015KT 18/14 A2995 RMK A01 T01830141  RH  076%=      5-min Rain = 0
KAD1 141312Z 20016KT 19/14 A2995 RMK A01 T01850140  RH  075%=      5-min Rain = 0
KAD1 141313Z 20015KT 19/14 A2995 RMK A01 T01860141  RH  075%=      5-min Rain = 0
KAD1 141314Z 20014KT 19/14 A2995 RMK A01 T01870142  RH  075%=      5-min Rain = 0
KAD1 141315Z 21015KT 19/14 A2995 RMK A01 T01880141  RH  074%=      5-min Rain = 0
KAD1 141316Z 21015KT 19/14 A2995 RMK A01 T01890139  RH  073%=      5-min Rain = 0
KAD1 141317Z 21014KT 19/14 A2995 RMK A01 T01900140  RH  073%=      5-min Rain = 0
KAD1 141318Z 21014KT 19/14 A2995 RMK A01 T01910140  RH  072%=      5-min Rain = 0
KAD1 141319Z 21013KT 19/14 A2995 RMK A01 T01920140  RH  072%=      5-min Rain = 0
KAD1 141320Z 21016KT 19/14 A2995 RMK A01 T01930139  RH  071%=      5-min Rain = 0
KAD1 141321Z 21015KT 19/14 A2995 RMK A01 T01940139  RH  070%=      5-min Rain = 0
KAD1 141322Z 21015KT 20/14 A2995 RMK A01 T01950138  RH  070%=      5-min Rain = 0
KAD1 141323Z 20013KT 20/14 A2995 RMK A01 T01950139  RH  070%=      5-min Rain = 0
KAD1 141324Z 21015KT 20/14 A2995 RMK A01 T01960138  RH  069%=      5-min Rain = 0
KAD1 141325Z 21015KT 20/14 A2995 RMK A01 T01970138  RH  069%=      5-min Rain = 0
KAD1 141326Z 20017KT 20/14 A2995 RMK A01 T01970137  RH  068%=      5-min Rain = 0
KAD1 141327Z 21015KT 20/14 A2995 RMK A01 T01980138  RH  069%=      5-min Rain = 0
KAD1 141328Z 20015KT 20/14 A2995 RMK A01 T01980138  RH  068%=      5-min Rain = 0
KAD1 141329Z 20016KT 20/14 A2995 RMK A01 T01990137  RH  067%=      5-min Rain = 0
KAD1 141330Z 20016KT 20/14 A2995 RMK A01 T02000137  RH  067%=      5-min Rain = 0
KAD1 141331Z 21016KT 20/14 A2995 RMK A01 T02000136  RH  067%=      5-min Rain = 0
KAD1 141332Z 21015KT 20/14 A2995 RMK A01 T02000138  RH  067%=      5-min Rain = 0
KAD1 141333Z 20014G19KT 20/14 A2995 RMK A01 T02010136  RH  066%=      5-min Rain = 0
KAD1 141334Z 20014KT 20/14 A2995 RMK A01 T02020138  RH  067%=      5-min Rain = 0
KAD1 141335Z 20015KT 20/14 A2995 RMK A01 T02030138  RH  066%=      5-min Rain = 0
KAD1 141336Z 21016KT 20/14 A2995 RMK A01 T02040136  RH  065%=      5-min Rain = 0
KAD1 141337Z 21013KT 20/14 A2995 RMK A01 T02040138  RH  066%=      5-min Rain = 0
KAD1 141338Z 21014KT 20/14 A2995 RMK A01 T02040137  RH  065%=      5-min Rain = 0
KAD1 141339Z 21014G19KT 20/14 A2995 RMK A01 T02040138  RH  065%=      5-min Rain = 0
KAD1 141340Z 21016KT 21/14 A2995 RMK A01 T02050136  RH  064%=      5-min Rain = 0
KAD1 141341Z 21017KT 20/13 A2995 RMK A01 T02040133  RH  064%=      5-min Rain = 0
KAD1 141342Z 20014KT 20/13 A2995 RMK A01 T02040134  RH  064%=      5-min Rain = 0
KAD1 141343Z 20016KT 20/14 A2994 RMK A01 T02040135  RH  064%=      5-min Rain = 0
KAD1 141344Z 20015KT 20/13 A2995 RMK A01 T02040134  RH  064%=      5-min Rain = 0
KAD1 141345Z 20016KT 21/13 A2994 RMK A01 T02050133  RH  063%=      5-min Rain = 0
KAD1 141346Z 20015KT 21/13 A2995 RMK A01 T02060134  RH  063%=      5-min Rain = 0
KAD1 141347Z 20017KT 21/13 A2995 RMK A01 T02050133  RH  063%=      5-min Rain = 0
KAD1 141348Z 20015KT 21/13 A2995 RMK A01 T02050133  RH  063%=      5-min Rain = 0
KAD1 141349Z 20013KT 21/13 A2995 RMK A01 T02050134  RH  064%=      5-min Rain = 0
KAD1 141350Z 20013KT 21/13 A2995 RMK A01 T02050134  RH  064%=      5-min Rain = 0
KAD1 141351Z 20013KT 21/13 A2995 RMK A01 T02050134  RH  064%=      5-min Rain = 0
KAD1 141352Z 20014KT 21/14 A2995 RMK A01 T02060135  RH  064%=      5-min Rain = 0
KAD1 141353Z 20012KT 21/14 A2995 RMK A01 T02070135  RH  063%=      5-min Rain = 0
KAD1 141354Z 20013KT 21/14 A2995 RMK A01 T02070136  RH  064%=      5-min Rain = 0
KAD1 141355Z 20012KT 21/14 A2995 RMK A01 T02080136  RH  063%=      5-min Rain = 0
KAD1 141356Z 21013KT 21/14 A2995 RMK A01 T02090136  RH  063%=      5-min Rain = 0
KAD1 141357Z 21013KT 21/14 A2995 RMK A01 T02100135  RH  062%=      5-min Rain = 0
KAD1 141358Z 21014KT 21/13 A2995 RMK A01 T02100134  RH  062%=      5-min Rain = 0
KAD1 141359Z 21013KT 21/13 A2995 RMK A01 T02100134  RH  062%=      5-min Rain = 0
KAD1 141400Z 21014KT 21/13 A2995 RMK A01 T02100132  RH  061%=      5-min Rain = 0
KAD1 141401Z 21014KT 21/13 A2995 RMK A01 T02110132  RH  061%=      5-min Rain = 0
KAD1 141402Z 21014KT 21/13 A2995 RMK A01 T02110132  RH  061%=      5-min Rain = 0
KAD1 141403Z 21014KT 21/13 A2995 RMK A01 T02120131  RH  060%=      5-min Rain = 0
KAD1 141404Z 21014KT 21/13 A2995 RMK A01 T02130131  RH  059%=      5-min Rain = 0
KAD1 141405Z 21015KT 22/13 A2995 RMK A01 T02150131  RH  059%=      5-min Rain = 0
KAD1 141406Z 21014KT 22/13 A2995 RMK A01 T02160130  RH  058%=      5-min Rain = 0
KAD1 141407Z 21017KT 22/13 A2994 RMK A01 T02170131  RH  058%=      5-min Rain = 0
KAD1 141408Z 21016KT 22/13 A2994 RMK A01 T02180129  RH  057%=      5-min Rain = 0
KAD1 141409Z 21013KT 22/13 A2995 RMK A01 T02190131  RH  057%=      5-min Rain = 0
KAD1 141410Z 22013KT 22/13 A2995 RMK A01 T02200134  RH  058%=      5-min Rain = 0
KAD1 141411Z 22014KT 22/13 A2995 RMK A01 T02220131  RH  056%=      5-min Rain = 0
KAD1 141412Z 21015KT 22/13 A2995 RMK A01 T02230130  RH  055%=      5-min Rain = 0
KAD1 141413Z 22015KT 23/13 A2995 RMK A01 T02250133  RH  056%=      5-min Rain = 0
KAD1 141414Z 22014KT 23/13 A2994 RMK A01 T02250132  RH  056%=      5-min Rain = 0
KAD1 141415Z 21013G18KT 23/13 A2994 RMK A01 T02260133  RH  056%=      5-min Rain = 0
KAD1 141416Z 22014KT 23/13 A2994 RMK A01 T02260131  RH  055%=      5-min Rain = 0
KAD1 141417Z 22013KT 23/13 A2994 RMK A01 T02270132  RH  055%=      5-min Rain = 0
KAD1 141418Z 21015KT 23/13 A2994 RMK A01 T02280131  RH  054%=      5-min Rain = 0
KAD1 141419Z 21016KT 23/13 A2994 RMK A01 T02280131  RH  054%=      5-min Rain = 0
KAD1 141420Z 22014KT 23/13 A2995 RMK A01 T02280133  RH  055%=      5-min Rain = 0
KAD1 141421Z 21015KT 23/13 A2994 RMK A01 T02290131  RH  054%=      5-min Rain = 0
KAD1 141422Z 22015KT 23/13 A2994 RMK A01 T02310130  RH  053%=      5-min Rain = 0
KAD1 141423Z 22015KT 23/13 A2995 RMK A01 T02320130  RH  053%=      5-min Rain = 0
KAD1 141424Z 22015KT 23/13 A2995 RMK A01 T02340130  RH  052%=      5-min Rain = 0
KAD1 141425Z 22017KT 24/13 A2995 RMK A01 T02350130  RH  052%=      5-min Rain = 0
KAD1 141426Z 22013KT 24/13 A2995 RMK A01 T02350131  RH  052%=      5-min Rain = 0
KAD1 141427Z 21013KT 24/13 A2995 RMK A01 T02360133  RH  052%=      5-min Rain = 0
KAD1 141428Z 22014KT 24/13 A2994 RMK A01 T02380133  RH  052%=      5-min Rain = 0
KAD1 141429Z 22014KT 24/13 A2995 RMK A01 T02380134  RH  052%=      5-min Rain = 0
KAD1 141430Z 22016KT 24/13 A2995 RMK A01 T02380130  RH  051%=      5-min Rain = 0
KAD1 141431Z 22015KT 24/13 A2995 RMK A01 T02370130  RH  051%=      5-min Rain = 0
KAD1 141432Z 22014KT 24/13 A2995 RMK A01 T02370132  RH  052%=      5-min Rain = 0
KAD1 141433Z 22013KT 24/13 A2995 RMK A01 T02360131  RH  052%=      5-min Rain = 0
KAD1 141434Z 23015KT 24/13 A2995 RMK A01 T02360128  RH  051%=      5-min Rain = 0
KAD1 141435Z 22014KT 24/13 A2995 RMK A01 T02360127  RH  050%=      5-min Rain = 0
KAD1 141436Z 23014KT 24/13 A2995 RMK A01 T02370127  RH  050%=      5-min Rain = 0
KAD1 141437Z 23012KT 24/13 A2995 RMK A01 T02350126  RH  050%=      5-min Rain = 0
KAD1 141438Z 23011KT 24/13 A2995 RMK A01 T02350129  RH  051%=      5-min Rain = 0
KAD1 141439Z 23013KT 24/12 A2995 RMK A01 T02350124  RH  050%=      5-min Rain = 0
KAD1 141440Z 24016KT 24/12 A2995 RMK A01 T02350115  RH  047%=      5-min Rain = 0
KAD1 141441Z 23016KT 24/11 A2995 RMK A01 T02350113  RH  046%=      5-min Rain = 0
KAD1 141442Z 23015G20KT 24/11 A2995 RMK A01 T02350112  RH  046%=      5-min Rain = 0
KAD1 141443Z 24015KT 24/11 A2995 RMK A01 T02350110  RH  045%=      5-min Rain = 0
KAD1 141444Z 24013G21KT 24/11 A2995 RMK A01 T02350111  RH  046%=      5-min Rain = 0
KAD1 141445Z 23018KT 24/11 A2995 RMK A01 T02350108  RH  045%=      5-min Rain = 0
KAD1 141446Z 23014KT 24/11 A2995 RMK A01 T02350107  RH  044%=      5-min Rain = 0
KAD1 141447Z 23012KT 24/11 A2995 RMK A01 T02350114  RH  046%=      5-min Rain = 0
KAD1 141448Z 23012KT 24/12 A2995 RMK A01 T02350116  RH  047%=      5-min Rain = 0
KAD1 141449Z 23016KT 23/11 A2995 RMK A01 T02340114  RH  047%=      5-min Rain = 0
KAD1 141450Z 23015KT 24/11 A2995 RMK A01 T02350113  RH  046%=      5-min Rain = 0
KAD1 141451Z 24013KT 24/11 A2995 RMK A01 T02350114  RH  046%=      5-min Rain = 0
KAD1 141452Z 24013KT 24/11 A2995 RMK A01 T02360114  RH  046%=      5-min Rain = 0
KAD1 141453Z 23011KT 24/12 A2995 RMK A01 T02360116  RH  047%=      5-min Rain = 0
KAD1 141454Z 23011KT 24/12 A2995 RMK A01 T02360120  RH  048%=      5-min Rain = 0
KAD1 141455Z 23013KT 24/12 A2995 RMK A01 T02360118  RH  047%=      5-min Rain = 0
KAD1 141456Z 23011KT 24/12 A2995 RMK A01 T02360116  RH  047%=      5-min Rain = 0
KAD1 141457Z 24013KT 24/12 A2995 RMK A01 T02370118  RH  047%=      5-min Rain = 0
KAD1 141458Z 24013KT 24/12 A2995 RMK A01 T02380118  RH  047%=      5-min Rain = 0
KAD1 141459Z 24013KT 24/12 A2995 RMK A01 T02390117  RH  046%=      5-min Rain = 0
KAD1 141500Z 24013G18KT 24/12 A2995 RMK A01 T02400117  RH  046%=      5-min Rain = 0
KAD1 141501Z 23013KT 24/12 A2995 RMK A01 T02400118  RH  046%=      5-min Rain = 0
KAD1 141502Z 23013KT 24/12 A2994 RMK A01 T02400119  RH  047%=      5-min Rain = 0
KAD1 141503Z 23014KT 24/12 A2994 RMK A01 T02390119  RH  047%=      5-min Rain = 0
KAD1 141504Z 23013KT 24/12 A2994 RMK A01 T02380118  RH  047%=      5-min Rain = 0
KAD1 141505Z 25014KT 24/12 A2995 RMK A01 T02380118  RH  047%=      5-min Rain = 0
KAD1 141506Z 24012KT 24/12 A2995 RMK A01 T02380120  RH  048%=      5-min Rain = 0
KAD1 141507Z 24012KT 24/12 A2995 RMK A01 T02380120  RH  048%=      5-min Rain = 0
KAD1 141508Z 24013KT 24/12 A2994 RMK A01 T02390120  RH  047%=      5-min Rain = 0
KAD1 141509Z 25012KT 24/12 A2995 RMK A01 T02390121  RH  047%=      5-min Rain = 0
KAD1 141510Z 25013KT 24/12 A2994 RMK A01 T02400121  RH  047%=      5-min Rain = 0
KAD1 141511Z 25013KT 24/12 A2994 RMK A01 T02420120  RH  046%=      5-min Rain = 0
KAD1 141512Z 24016G21KT 24/12 A2994 RMK A01 T02440121  RH  046%=      5-min Rain = 0
KAD1 141513Z 25017KT 25/12 A2994 RMK A01 T02450115  RH  044%=      5-min Rain = 0
KAD1 141514Z 24015KT 25/11 A2994 RMK A01 T02470113  RH  043%=      5-min Rain = 0
KAD1 141515Z 24015KT 25/12 A2994 RMK A01 T02480117  RH  044%=      5-min Rain = 0
KAD1 141516Z 25015KT 25/12 A2994 RMK A01 T02490118  RH  044%=      5-min Rain = 0
KAD1 141517Z 26015KT 25/12 A2994 RMK A01 T02490119  RH  044%=      5-min Rain = 0
KAD1 141518Z 25013KT 25/12 A2994 RMK A01 T02500123  RH  045%=      5-min Rain = 0
KAD1 141519Z 25014KT 25/12 A2994 RMK A01 T02510122  RH  045%=      5-min Rain = 0
KAD1 141520Z 25013KT 25/12 A2994 RMK A01 T02510124  RH  045%=      5-min Rain = 0
KAD1 141521Z 26014KT 25/13 A2994 RMK A01 T02530125  RH  045%=      5-min Rain = 0
KAD1 141522Z 25013KT 25/12 A2994 RMK A01 T02540120  RH  043%=      5-min Rain = 0
KAD1 141523Z 25013KT 25/12 A2994 RMK A01 T02540124  RH  044%=      5-min Rain = 0
KAD1 141524Z 25014KT 26/12 A2994 RMK A01 T02560123  RH  044%=      5-min Rain = 0
KAD1 141525Z 25016KT 26/13 A2994 RMK A01 T02580125  RH  044%=      5-min Rain = 0
KAD1 141526Z 25018KT 26/12 A2994 RMK A01 T02590120  RH  042%=      5-min Rain = 0
KAD1 141527Z 25019KT 26/12 A2994 RMK A01 T02590116  RH  041%=      5-min Rain = 0
KAD1 141528Z 25016KT 26/12 A2994 RMK A01 T02580118  RH  041%=      5-min Rain = 0
KAD1 141529Z 24018KT 26/12 A2994 RMK A01 T02600118  RH  041%=      5-min Rain = 0
KAD1 141530Z 25017KT 26/12 A2994 RMK A01 T02600119  RH  041%=      5-min Rain = 0
KAD1 141531Z 25015KT 26/12 A2994 RMK A01 T02610122  RH  042%=      5-min Rain = 0
KAD1 141532Z 25015KT 26/12 A2994 RMK A01 T02640121  RH  041%=      5-min Rain = 0
KAD1 141533Z 25018KT 27/12 A2994 RMK A01 T02650122  RH  041%=      5-min Rain = 0
KAD1 141534Z 25016KT 27/12 A2994 RMK A01 T02650117  RH  040%=      5-min Rain = 0
KAD1 141535Z 25017G22KT 26/12 A2994 RMK A01 T02640116  RH  040%=      5-min Rain = 0
KAD1 141536Z 24015KT 26/12 A2994 RMK A01 T02640121  RH  041%=      5-min Rain = 0
KAD1 141537Z 24017KT 27/12 A2994 RMK A01 T02660116  RH  039%=      5-min Rain = 0
KAD1 141538Z 25017KT 27/12 A2994 RMK A01 T02660119  RH  040%=      5-min Rain = 0
KAD1 141539Z 25014KT 27/12 A2994 RMK A01 T02670119  RH  040%=      5-min Rain = 0
KAD1 141540Z 25015KT 27/12 A2994 RMK A01 T02680117  RH  039%=      5-min Rain = 0
KAD1 141541Z 25016G21KT 27/12 A2994 RMK A01 T02690116  RH  039%=      5-min Rain = 0
KAD1 141542Z 25017KT 27/11 A2994 RMK A01 T02690112  RH  038%=      5-min Rain = 0
KAD1 141543Z 24016KT 27/11 A2994 RMK A01 T02680111  RH  037%=      5-min Rain = 0
KAD1 141544Z 24016KT 27/11 A2994 RMK A01 T02680113  RH  038%=      5-min Rain = 0
KAD1 141545Z 25015KT 27/12 A2994 RMK A01 T02680115  RH  038%=      5-min Rain = 0
KAD1 141546Z 24015KT 27/12 A2994 RMK A01 T02680115  RH  039%=      5-min Rain = 0
KAD1 141547Z 25017KT 27/11 A2994 RMK A01 T02680113  RH  038%=      5-min Rain = 0
KAD1 141548Z 26014KT 27/11 A2994 RMK A01 T02670113  RH  038%=      5-min Rain = 0
KAD1 141549Z 26014KT 27/11 A2994 RMK A01 T02670113  RH  038%=      5-min Rain = 0
KAD1 141550Z 25013KT 27/12 A2994 RMK A01 T02680120  RH  040%=      5-min Rain = 0
KAD1 141551Z 25016KT 27/12 A2994 RMK A01 T02710118  RH  039%=      5-min Rain = 0
KAD1 141552Z 25016KT 27/11 A2994 RMK A01 T02700112  RH  037%=      5-min Rain = 0
KAD1 141553Z 25016KT 27/11 A2994 RMK A01 T02680114  RH  038%=      5-min Rain = 0
KAD1 141554Z 25017KT 27/11 A2994 RMK A01 T02680111  RH  037%=      5-min Rain = 0
KAD1 141555Z 26017KT 27/11 A2994 RMK A01 T02680112  RH  038%=      5-min Rain = 0
KAD1 141556Z 27016KT 27/11 A2994 RMK A01 T02690106  RH  036%=      5-min Rain = 0
KAD1 141557Z 27014KT 27/11 A2994 RMK A01 T02680106  RH  036%=      5-min Rain = 0
KAD1 141558Z 25013KT 27/12 A2994 RMK A01 T02690115  RH  038%=      5-min Rain = 0
KAD1 141559Z 26018KT 27/11 A2994 RMK A01 T02690112  RH  037%=      5-min Rain = 0
KAD1 141600Z 26018KT 27/11 A2994 RMK A01 T02690108  RH  036%=      5-min Rain = 0
KAD1 141601Z 26017KT 27/11 A2994 RMK A01 T02680108  RH  037%=      5-min Rain = 0
KAD1 141602Z 25016KT 27/11 A2994 RMK A01 T02680111  RH  037%=      5-min Rain = 0
KAD1 141603Z 25016KT 27/11 A2994 RMK A01 T02670109  RH  037%=      5-min Rain = 0
KAD1 141604Z 25015KT 27/11 A2994 RMK A01 T02670109  RH  037%=      5-min Rain = 0
KAD1 141605Z 25015KT 27/11 A2994 RMK A01 T02660110  RH  038%=      5-min Rain = 0
KAD1 141606Z 25013KT 27/11 A2994 RMK A01 T02660113  RH  038%=      5-min Rain = 0
KAD1 141607Z 25014KT 27/11 A2994 RMK A01 T02670114  RH  038%=      5-min Rain = 0
KAD1 141608Z 26014KT 27/11 A2994 RMK A01 T02680110  RH  037%=      5-min Rain = 0
KAD1 141609Z 26016KT 27/11 A2994 RMK A01 T02680109  RH  037%=      5-min Rain = 0
KAD1 141610Z 26015KT 27/11 A2994 RMK A01 T02670110  RH  037%=      5-min Rain = 0
KAD1 141611Z 26015KT 27/11 A2994 RMK A01 T02670108  RH  037%=      5-min Rain = 0
KAD1 141612Z 26015KT 27/11 A2994 RMK A01 T02670108  RH  037%=      5-min Rain = 0
KAD1 141613Z 26015KT 27/11 A2994 RMK A01 T02670107  RH  037%=      5-min Rain = 0
KAD1 141614Z 26014KT 27/11 A2994 RMK A01 T02670106  RH  036%=      5-min Rain = 0
KAD1 141615Z 26012KT 27/11 A2994 RMK A01 T02670109  RH  037%=      5-min Rain = 0
KAD1 141616Z 25012KT 27/11 A2994 RMK A01 T02670112  RH  038%=      5-min Rain = 0
KAD1 141617Z 25014KT 27/11 A2994 RMK A01 T02670113  RH  038%=      5-min Rain = 0
KAD1 141618Z 25013KT 27/11 A2994 RMK A01 T02670110  RH  037%=      5-min Rain = 0
KAD1 141619Z 26012KT 27/11 A2994 RMK A01 T02670110  RH  037%=      5-min Rain = 0
KAD1 141620Z 26014KT 27/10 A2994 RMK A01 T02670104  RH  036%=      5-min Rain = 0
KAD1 141621Z 26013KT 27/10 A2994 RMK A01 T02670101  RH  035%=      5-min Rain = 0
KAD1 141622Z 26015KT 27/10 A2994 RMK A01 T02670099  RH  035%=      5-min Rain = 0
KAD1 141623Z 26012KT 27/10 A2994 RMK A01 T02670101  RH  035%=      5-min Rain = 0
KAD1 141624Z 27012KT 27/11 A2994 RMK A01 T02670105  RH  036%=      5-min Rain = 0
KAD1 141625Z 26015KT 27/10 A2994 RMK A01 T02670098  RH  034%=      5-min Rain = 0
KAD1 141626Z 26014KT 27/10 A2994 RMK A01 T02680098  RH  034%=      5-min Rain = 0
KAD1 141627Z 26012KT 27/10 A2994 RMK A01 T02670098  RH  035%=      5-min Rain = 0
KAD1 141628Z 26011KT 27/10 A2994 RMK A01 T02670101  RH  035%=      5-min Rain = 0
KAD1 141629Z 25014KT 27/10 A2994 RMK A01 T02670103  RH  036%=      5-min Rain = 0
KAD1 141630Z 25013KT 27/10 A2994 RMK A01 T02660097  RH  034%=      5-min Rain = 0
KAD1 141631Z 25010KT 27/10 A2994 RMK A01 T02660102  RH  036%=      5-min Rain = 0
KAD1 141632Z 25012KT 27/11 A2994 RMK A01 T02660105  RH  036%=      5-min Rain = 0
KAD1 141633Z 26013KT 27/10 A2994 RMK A01 T02670101  RH  035%=      5-min Rain = 0
KAD1 141634Z 26013KT 27/10 A2994 RMK A01 T02670102  RH  035%=      5-min Rain = 0
KAD1 141635Z 26013KT 27/10 A2993 RMK A01 T02670099  RH  035%=      5-min Rain = 0
KAD1 141636Z 25014KT 27/10 A2993 RMK A01 T02670099  RH  035%=      5-min Rain = 0
KAD1 141637Z 26013KT 27/10 A2993 RMK A01 T02670099  RH  035%=      5-min Rain = 0
KAD1 141638Z 26013KT 27/10 A2993 RMK A01 T02670099  RH  035%=      5-min Rain = 0
KAD1 141639Z 25013KT 27/10 A2993 RMK A01 T02670099  RH  035%=      5-min Rain = 0
KAD1 141640Z 25012KT 27/10 A2993 RMK A01 T02680102  RH  035%=      5-min Rain = 0
KAD1 141641Z 26010KT 27/11 A2993 RMK A01 T02690106  RH  036%=      5-min Rain = 0
KAD1 141642Z 26010KT 27/11 A2993 RMK A01 T02700107  RH  036%=      5-min Rain = 0
KAD1 141643Z 27012KT 27/10 A2993 RMK A01 T02710103  RH  035%=      5-min Rain = 0
KAD1 141644Z 25012KT 27/10 A2993 RMK A01 T02710104  RH  035%=      5-min Rain = 0
KAD1 141645Z 25012KT 27/10 A2993 RMK A01 T02710103  RH  035%=      5-min Rain = 0
KAD1 141646Z 26010KT 27/10 A2993 RMK A01 T02710102  RH  035%=      5-min Rain = 0
KAD1 141647Z 26010KT 27/11 A2993 RMK A01 T02720106  RH  035%=      5-min Rain = 0
KAD1 141648Z 27012KT 27/11 A2993 RMK A01 T02720108  RH  036%=      5-min Rain = 0
KAD1 141649Z 26011KT 27/10 A2993 RMK A01 T02720099  RH  034%=      5-min Rain = 0
KAD1 141650Z 26013KT 27/10 A2993 RMK A01 T02720102  RH  034%=      5-min Rain = 0
KAD1 141651Z 26012KT 27/10 A2993 RMK A01 T02720099  RH  034%=      5-min Rain = 0
KAD1 141652Z 26013KT 27/10 A2993 RMK A01 T02720100  RH  034%=      5-min Rain = 0
KAD1 141653Z 26012KT 27/10 A2993 RMK A01 T02720101  RH  034%=      5-min Rain = 0
KAD1 141654Z 27010KT 27/11 A2993 RMK A01 T02720106  RH  035%=      5-min Rain = 0
KAD1 141655Z 25010KT 27/11 A2993 RMK A01 T02720105  RH  035%=      5-min Rain = 0
KAD1 141656Z 25010KT 27/11 A2993 RMK A01 T02730110  RH  036%=      5-min Rain = 0
KAD1 141657Z 25011KT 27/10 A2993 RMK A01 T02730103  RH  034%=      5-min Rain = 0
KAD1 141658Z 25010KT 27/11 A2993 RMK A01 T02740110  RH  036%=      5-min Rain = 0
KAD1 141659Z 25014KT 27/10 A2993 RMK A01 T02730103  RH  034%=      5-min Rain = 0
KAD1 141700Z 25010KT 27/10 A2993 RMK A01 T02740102  RH  034%=      5-min Rain = 0
KAD1 141701Z 26012KT 27/10 A2993 RMK A01 T02740104  RH  035%=      5-min Rain = 0
KAD1 141702Z 26012KT 27/10 A2993 RMK A01 T02740104  RH  035%=      5-min Rain = 0
KAD1 141703Z 26013KT 28/10 A2993 RMK A01 T02750103  RH  034%=      5-min Rain = 0
KAD1 141704Z 26013KT 28/11 A2993 RMK A01 T02760105  RH  034%=      5-min Rain = 0
KAD1 141705Z 26012KT 28/11 A2993 RMK A01 T02780107  RH  034%=      5-min Rain = 0
KAD1 141706Z 26012KT 28/10 A2993 RMK A01 T02790101  RH  033%=      5-min Rain = 0
KAD1 141707Z 26012KT 28/11 A2993 RMK A01 T02790105  RH  034%=      5-min Rain = 0
KAD1 141708Z 27012KT 28/11 A2993 RMK A01 T02780106  RH  034%=      5-min Rain = 0
KAD1 141709Z 26011KT 28/10 A2993 RMK A01 T02780104  RH  034%=      5-min Rain = 0
KAD1 141710Z 26014KT 28/10 A2993 RMK A01 T02780103  RH  034%=      5-min Rain = 0
KAD1 141711Z 26014KT 28/10 A2993 RMK A01 T02780096  RH  032%=      5-min Rain = 0
KAD1 141712Z 26012KT 28/10 A2993 RMK A01 T02780104  RH  034%=      5-min Rain = 0
KAD1 141713Z 26014KT 28/10 A2993 RMK A01 T02780103  RH  034%=      5-min Rain = 0
KAD1 141714Z 26013KT 28/10 A2993 RMK A01 T02780097  RH  032%=      5-min Rain = 0
KAD1 141715Z 26011KT 28/10 A2993 RMK A01 T02790100  RH  033%=      5-min Rain = 0
KAD1 141716Z 26013KT 28/10 A2993 RMK A01 T02800103  RH  033%=      5-min Rain = 0
KAD1 141717Z 27013KT 28/10 A2993 RMK A01 T02810098  RH  032%=      5-min Rain = 0
KAD1 141718Z 27013KT 28/10 A2993 RMK A01 T02820100  RH  032%=      5-min Rain = 0
KAD1 141719Z 27015KT 28/10 A2993 RMK A01 T02830097  RH  031%=      5-min Rain = 0
KAD1 141720Z 27014KT 28/10 A2993 RMK A01 T02840099  RH  031%=      5-min Rain = 0
KAD1 141721Z 26015KT 29/10 A2993 RMK A01 T02860097  RH  031%=      5-min Rain = 0
KAD1 141722Z 25015KT 29/10 A2993 RMK A01 T02880103  RH  032%=      5-min Rain = 0
KAD1 141723Z 25014KT 29/11 A2993 RMK A01 T02910109  RH  032%=      5-min Rain = 0
KAD1 141724Z 25014KT 29/10 A2993 RMK A01 T02930102  RH  031%=      5-min Rain = 0
KAD1 141725Z 25015KT 29/10 A2993 RMK A01 T02920100  RH  030%=      5-min Rain = 0
KAD1 141726Z 25016KT 29/10 A2993 RMK A01 T02900098  RH  030%=      5-min Rain = 0
KAD1 141727Z 25015KT 29/10 A2993 RMK A01 T02890097  RH  030%=      5-min Rain = 0
KAD1 141728Z 26015KT 29/10 A2993 RMK A01 T02890104  RH  032%=      5-min Rain = 0
KAD1 141729Z 26017KT 29/10 A2993 RMK A01 T02900102  RH  031%=      5-min Rain = 0
KAD1 141730Z 25016KT 29/10 A2993 RMK A01 T02910100  RH  030%=      5-min Rain = 0
KAD1 141731Z 26012KT 29/10 A2993 RMK A01 T02900101  RH  031%=      5-min Rain = 0
KAD1 141732Z 25014KT 29/10 A2993 RMK A01 T02920103  RH  031%=      5-min Rain = 0
KAD1 141733Z 25012G17KT 29/11 A2993 RMK A01 T02930108  RH  032%=      5-min Rain = 0
KAD1 141734Z 26017KT 29/10 A2993 RMK A01 T02940101  RH  030%=      5-min Rain = 0
KAD1 141735Z 25017KT 29/10 A2993 RMK A01 T02930099  RH  030%=      5-min Rain = 0
KAD1 141736Z 25016KT 29/10 A2992 RMK A01 T02920103  RH  031%=      5-min Rain = 0
KAD1 141737Z 26013KT 29/10 A2992 RMK A01 T02920102  RH  031%=      5-min Rain = 0
KAD1 141738Z 26014KT 29/10 A2992 RMK A01 T02930103  RH  031%=      5-min Rain = 0
KAD1 141739Z 26012KT 29/11 A2992 RMK A01 T02940105  RH  031%=      5-min Rain = 0
KAD1 141740Z 25010KT 30/11 A2992 RMK A01 T02950108  RH  031%=      5-min Rain = 0
KAD1 141741Z 24015KT 30/11 A2992 RMK A01 T02970108  RH  031%=      5-min Rain = 0
KAD1 141742Z 24014KT 30/11 A2992 RMK A01 T02990107  RH  030%=      5-min Rain = 0
KAD1 141743Z 24015KT 30/11 A2992 RMK A01 T03000110  RH  031%=      5-min Rain = 0
KAD1 141744Z 24016G21KT 30/10 A2992 RMK A01 T03020101  RH  029%=      5-min Rain = 0
KAD1 141745Z 25016KT 30/10 A2992 RMK A01 T03010104  RH  030%=      5-min Rain = 0
KAD1 141746Z 25015KT 30/10 A2992 RMK A01 T02990101  RH  029%=      5-min Rain = 0
KAD1 141747Z 26015KT 30/10 A2992 RMK A01 T02980101  RH  029%=      5-min Rain = 0
KAD1 141748Z 27015KT 30/10 A2992 RMK A01 T02990099  RH  029%=      5-min Rain = 0
KAD1 141749Z 25015KT 30/10 A2992 RMK A01 T02980100  RH  029%=      5-min Rain = 0
KAD1 141750Z 25015KT 30/10 A2992 RMK A01 T02950099  RH  030%=      5-min Rain = 0
KAD1 141751Z 25015KT 29/10 A2992 RMK A01 T02930102  RH  030%=      5-min Rain = 0
KAD1 141752Z 25014KT 29/10 A2992 RMK A01 T02920101  RH  031%=      5-min Rain = 0
KAD1 141753Z 25017KT 29/10 A2992 RMK A01 T02910099  RH  030%=      5-min Rain = 0
KAD1 141754Z 25014KT 29/10 A2992 RMK A01 T02900096  RH  030%=      5-min Rain = 0
KAD1 141755Z 25014KT 29/10 A2992 RMK A01 T02900103  RH  031%=      5-min Rain = 0
KAD1 141756Z 25016KT 29/10 A2992 RMK A01 T02930103  RH  031%=      5-min Rain = 0
KAD1 141757Z 25017KT 30/10 A2992 RMK A01 T02960102  RH  030%=      5-min Rain = 0
KAD1 141758Z 25016KT 30/10 A2992 RMK A01 T02970101  RH  030%=      5-min Rain = 0
KAD1 141759Z 25014G19KT 30/10 A2992 RMK A01 T02970100  RH  029%=      5-min Rain = 0
KAD1 141800Z 25012KT 30/11 A2992 RMK A01 T02990111  RH  031%=      5-min Rain = 0
KAD1 141801Z 25014KT 30/11 A2991 RMK A01 T03010109  RH  030%=      5-min Rain = 0
KAD1 141802Z 26016KT 30/10 A2991 RMK A01 T02990104  RH  030%=      5-min Rain = 0
KAD1 141803Z 25016KT 30/10 A2991 RMK A01 T02960096  RH  029%=      5-min Rain = 0
KAD1 141804Z 25015KT 29/10 A2991 RMK A01 T02930095  RH  029%=      5-min Rain = 0
KAD1 141805Z 25014KT 29/10 A2991 RMK A01 T02920098  RH  030%=      5-min Rain = 0
KAD1 141806Z 25012KT 29/11 A2991 RMK A01 T02920105  RH  031%=      5-min Rain = 0
KAD1 141807Z 24015KT 30/11 A2991 RMK A01 T02950107  RH  031%=      5-min Rain = 0
KAD1 141808Z 24015KT 30/10 A2991 RMK A01 T02960103  RH  030%=      5-min Rain = 0
KAD1 141809Z 25013KT 30/11 A2991 RMK A01 T02970107  RH  031%=      5-min Rain = 0
KAD1 141810Z 25012KT 30/11 A2991 RMK A01 T02960109  RH  031%=      5-min Rain = 0
KAD1 141811Z 25013KT 30/10 A2991 RMK A01 T02970104  RH  030%=      5-min Rain = 0
KAD1 141812Z 25012KT 30/11 A2991 RMK A01 T02980110  RH  031%=      5-min Rain = 0
KAD1 141813Z 25014KT 30/10 A2991 RMK A01 T02990103  RH  030%=      5-min Rain = 0
KAD1 141814Z 26012KT 30/11 A2991 RMK A01 T02990106  RH  030%=      5-min Rain = 0
KAD1 141815Z 25010KT 30/11 A2991 RMK A01 T02990109  RH  031%=      5-min Rain = 0
KAD1 141816Z 25010KT 30/11 A2991 RMK A01 T02990113  RH  032%=      5-min Rain = 0
KAD1 141817Z 25012KT 30/10 A2991 RMK A01 T02980104  RH  030%=      5-min Rain = 0
KAD1 141818Z 24010KT 30/10 A2991 RMK A01 T02970101  RH  030%=      5-min Rain = 0
KAD1 141819Z 25011KT 30/11 A2991 RMK A01 T02970105  RH  030%=      5-min Rain = 0
KAD1 141820Z 25014KT 30/11 A2991 RMK A01 T03010105  RH  030%=      5-min Rain = 0
KAD1 141821Z 24012KT 30/10 A2991 RMK A01 T03040099  RH  028%=      5-min Rain = 0
KAD1 141822Z 25010KT 31/11 A2991 RMK A01 T03050108  RH  030%=      5-min Rain = 0
KAD1 141823Z 25013KT 31/11 A2991 RMK A01 T03080105  RH  029%=      5-min Rain = 0
KAD1 141824Z 25013KT 31/10 A2991 RMK A01 T03080103  RH  028%=      5-min Rain = 0
KAD1 141825Z 24012KT 31/10 A2991 RMK A01 T03080104  RH  028%=      5-min Rain = 0
KAD1 141826Z 24011KT 31/10 A299 RMK A01 T03060099  RH  028%=      5-min Rain = 0
KAD1 141827Z 25012KT 31/10 A2991 RMK A01 T03050101  RH  028%=      5-min Rain = 0
KAD1 141828Z 25012KT 30/10 A299 RMK A01 T03040100  RH  028%=      5-min Rain = 0
KAD1 141829Z 25011KT 30/10 A2991 RMK A01 T03040102  RH  029%=      5-min Rain = 0
KAD1 141830Z 26012KT 30/10 A299 RMK A01 T03040102  RH  029%=      5-min Rain = 0
KAD1 141831Z 26013KT 31/10 A299 RMK A01 T03050102  RH  029%=      5-min Rain = 0
KAD1 141832Z 26014KT 31/10 A299 RMK A01 T03050099  RH  028%=      5-min Rain = 0
KAD1 141833Z 26014KT 31/10 A299 RMK A01 T03050099  RH  028%=      5-min Rain = 0
KAD1 141834Z 26013KT 30/10 A299 RMK A01 T03040099  RH  028%=      5-min Rain = 0
KAD1 141835Z 25015KT 30/10 A299 RMK A01 T03040101  RH  028%=      5-min Rain = 0
KAD1 141836Z 25014KT 30/10 A299 RMK A01 T03040102  RH  029%=      5-min Rain = 0
KAD1 141837Z 26016KT 31/10 A299 RMK A01 T03050101  RH  028%=      5-min Rain = 0
KAD1 141838Z 25012KT 31/11 A299 RMK A01 T03060107  RH  029%=      5-min Rain = 0
KAD1 141839Z 25014KT 31/10 A299 RMK A01 T03060104  RH  029%=      5-min Rain = 0
KAD1 141840Z 25013KT 31/11 A299 RMK A01 T03060105  RH  029%=      5-min Rain = 0
KAD1 141841Z 25011KT 31/11 A299 RMK A01 T03060106  RH  029%=      5-min Rain = 0
KAD1 141842Z 25012KT 31/11 A299 RMK A01 T03070107  RH  029%=      5-min Rain = 0
KAD1 141843Z 26013KT 31/11 A299 RMK A01 T03090105  RH  028%=      5-min Rain = 0
KAD1 141844Z 27014KT 31/11 A299 RMK A01 T03100105  RH  028%=      5-min Rain = 0
KAD1 141845Z 26013KT 31/10 A299 RMK A01 T03110102  RH  028%=      5-min Rain = 0
KAD1 141846Z 25010KT 31/11 A299 RMK A01 T03120108  RH  028%=      5-min Rain = 0
KAD1 141847Z 25013KT 31/11 A299 RMK A01 T03130111  RH  029%=      5-min Rain = 0
KAD1 141848Z 26015KT 32/10 A299 RMK A01 T03150104  RH  027%=      5-min Rain = 0
KAD1 141849Z 26014KT 32/10 A299 RMK A01 T03150104  RH  027%=      5-min Rain = 0
KAD1 141850Z 25016KT 32/10 A299 RMK A01 T03170104  RH  027%=      5-min Rain = 0
KAD1 141851Z 26014KT 32/11 A299 RMK A01 T03180105  RH  027%=      5-min Rain = 0
KAD1 141852Z 25014KT 32/10 A299 RMK A01 T03180095  RH  025%=      5-min Rain = 0
KAD1 141853Z 26015KT 32/10 A299 RMK A01 T03180095  RH  025%=      5-min Rain = 0
KAD1 141854Z 25014KT 32/10 A2989 RMK A01 T03190096  RH  025%=      5-min Rain = 0
KAD1 141855Z 24014KT 32/10 A2989 RMK A01 T03210100  RH  026%=      5-min Rain = 0
KAD1 141856Z 24014KT 32/10 A2989 RMK A01 T03210097  RH  025%=      5-min Rain = 0
KAD1 141857Z 25011KT 32/10 A2989 RMK A01 T03210102  RH  026%=      5-min Rain = 0
KAD1 141858Z 27011G16KT 32/10 A2989 RMK A01 T03240099  RH  025%=      5-min Rain = 0
KAD1 141859Z 26012KT 33/09 A2989 RMK A01 T03250094  RH  024%=      5-min Rain = 0
KAD1 141900Z 25013KT 32/10 A2989 RMK A01 T03240100  RH  025%=      5-min Rain = 0
KAD1 141901Z 24014KT 32/09 A2989 RMK A01 T03240091  RH  024%=      5-min Rain = 0
KAD1 141902Z 24014KT 32/10 A2989 RMK A01 T03220096  RH  025%=      5-min Rain = 0
KAD1 141903Z 24013KT 32/09 A2989 RMK A01 T03220089  RH  024%=      5-min Rain = 0
KAD1 141904Z 25013KT 32/09 A2989 RMK A01 T03220089  RH  024%=      5-min Rain = 0
KAD1 141905Z 24012KT 32/09 A2989 RMK A01 T03220086  RH  023%=      5-min Rain = 0
KAD1 141906Z 24012KT 32/09 A2989 RMK A01 T03210088  RH  024%=      5-min Rain = 0
KAD1 141907Z 25009KT 32/09 A2989 RMK A01 T03190090  RH  024%=      5-min Rain = 0
KAD1 141908Z 24008KT 32/10 A2989 RMK A01 T03190097  RH  025%=      5-min Rain = 0
KAD1 141909Z 23010KT 32/09 A2989 RMK A01 T03210093  RH  024%=      5-min Rain = 0
KAD1 141910Z 24010KT 32/10 A2989 RMK A01 T03230096  RH  025%=      5-min Rain = 0
KAD1 141911Z 25007KT 32/10 A2989 RMK A01 T03230098  RH  025%=      5-min Rain = 0
KAD1 141912Z 25010KT 32/10 A2989 RMK A01 T03230096  RH  025%=      5-min Rain = 0
KAD1 141913Z 24010KT 32/08 A2988 RMK A01 T03230082  RH  023%=      5-min Rain = 0
KAD1 141914Z 24008KT 32/09 A2988 RMK A01 T03220085  RH  023%=      5-min Rain = 0
KAD1 141915Z 23009KT 32/09 A2988 RMK A01 T03210092  RH  024%=      5-min Rain = 0
KAD1 141916Z 24007KT 32/10 A2988 RMK A01 T03220095  RH  025%=      5-min Rain = 0
KAD1 141917Z 26010KT 32/10 A2988 RMK A01 T03220101  RH  026%=      5-min Rain = 0
KAD1 141918Z 26012KT 32/10 A2988 RMK A01 T03220095  RH  025%=      5-min Rain = 0
KAD1 141919Z 26011KT 32/09 A2988 RMK A01 T03220091  RH  024%=      5-min Rain = 0
KAD1 141920Z 25009KT 32/09 A2988 RMK A01 T03210091  RH  024%=      5-min Rain = 0
KAD1 141921Z 26008KT 32/09 A2988 RMK A01 T03210094  RH  025%=      5-min Rain = 0
KAD1 141922Z 26008KT 32/09 A2988 RMK A01 T03220094  RH  025%=      5-min Rain = 0
KAD1 141923Z 25006KT 32/09 A2988 RMK A01 T03240093  RH  024%=      5-min Rain = 0
KAD1 141924Z 26008KT 33/10 A2988 RMK A01 T03250098  RH  025%=      5-min Rain = 0
KAD1 141925Z 26011KT 33/10 A2988 RMK A01 T03260099  RH  025%=      5-min Rain = 0
KAD1 141926Z 26009KT 33/10 A2988 RMK A01 T03280098  RH  024%=      5-min Rain = 0
KAD1 141927Z 26009KT 33/10 A2988 RMK A01 T03270095  RH  024%=      5-min Rain = 0
KAD1 141928Z 26008KT 33/10 A2987 RMK A01 T03260096  RH  024%=      5-min Rain = 0
KAD1 141929Z 25008KT 33/09 A2987 RMK A01 T03260093  RH  024%=      5-min Rain = 0
KAD1 141930Z 24007KT 33/09 A2987 RMK A01 T03250092  RH  024%=      5-min Rain = 0
KAD1 141931Z 24007KT 32/09 A2987 RMK A01 T03240091  RH  024%=      5-min Rain = 0
KAD1 141932Z 26006KT 32/09 A2987 RMK A01 T03240087  RH  023%=      5-min Rain = 0
KAD1 141933Z 25006KT 33/09 A2987 RMK A01 T03250091  RH  024%=      5-min Rain = 0
KAD1 141934Z 23005KT 33/10 A2987 RMK A01 T03250095  RH  024%=      5-min Rain = 0
KAD1 141935Z 23007KT 33/10 A2987 RMK A01 T03270096  RH  024%=      5-min Rain = 0
KAD1 141936Z 23009G15KT 33/10 A2987 RMK A01 T03280104  RH  025%=      5-min Rain = 0
KAD1 141937Z 23012KT 33/08 A2987 RMK A01 T03310078  RH  021%=      5-min Rain = 0
KAD1 141938Z 25014KT 34/08 A2987 RMK A01 T03350075  RH  020%=      5-min Rain = 0
KAD1 141939Z 26019KT 34/07 A2987 RMK A01 T03380065  RH  018%=      5-min Rain = 0
KAD1 141940Z 25017KT 34/05 A2987 RMK A01 T03410052  RH  017%=      5-min Rain = 0
KAD1 141941Z 25014KT 34/05 A2987 RMK A01 T03420054  RH  017%=      5-min Rain = 0
KAD1 141942Z 26012G18KT 35/08 A2987 RMK A01 T03450075  RH  019%=      5-min Rain = 0
KAD1 141943Z 25010G16KT 35/06 A2987 RMK A01 T03490064  RH  017%=      5-min Rain = 0
KAD1 141944Z 27010KT 35/07 A2987 RMK A01 T03510070  RH  018%=      5-min Rain = 0
KAD1 141945Z 27010G17KT 35/07 A2987 RMK A01 T03520069  RH  017%=      5-min Rain = 0
KAD1 141946Z 26017KT 35/08 A2987 RMK A01 T03510077  RH  019%=      5-min Rain = 0
KAD1 141947Z 26018KT 35/08 A2987 RMK A01 T03480075  RH  019%=      5-min Rain = 0
KAD1 141948Z 25015KT 34/08 A2987 RMK A01 T03440077  RH  019%=      5-min Rain = 0
KAD1 141949Z 24014KT 34/09 A2987 RMK A01 T03440085  RH  020%=      5-min Rain = 0
KAD1 141950Z 24012KT 34/08 A2987 RMK A01 T03440079  RH  020%=      5-min Rain = 0
KAD1 141951Z 23015KT 35/08 A2987 RMK A01 T03450081  RH  020%=      5-min Rain = 0
KAD1 141952Z 24015KT 35/06 A2987 RMK A01 T03450062  RH  017%=      5-min Rain = 0
KAD1 141953Z 26014KT 34/06 A2987 RMK A01 T03440064  RH  018%=      5-min Rain = 0
KAD1 141954Z 25015KT 34/05 A2987 RMK A01 T03430050  RH  016%=      5-min Rain = 0
KAD1 141955Z 24013KT 34/05 A2987 RMK A01 T03390049  RH  016%=      5-min Rain = 0
KAD1 141956Z 25012KT 34/05 A2987 RMK A01 T03370053  RH  017%=      5-min Rain = 0
KAD1 141957Z 24012KT 34/04 A2987 RMK A01 T03350042  RH  016%=      5-min Rain = 0
KAD1 141958Z 25013G19KT 33/05 A2987 RMK A01 T03340049  RH  017%=      5-min Rain = 0
KAD1 141959Z 24016KT 33/05 A2987 RMK A01 T03340050  RH  017%=      5-min Rain = 0
KAD1 142000Z 24015KT 33/05 A2987 RMK A01 T03330052  RH  017%=      5-min Rain = 0
KAD1 142001Z 25012KT 33/06 A2987 RMK A01 T03320057  RH  018%=      5-min Rain = 0
KAD1 142002Z 25014KT 33/06 A2987 RMK A01 T03320060  RH  018%=      5-min Rain = 0
KAD1 142003Z 25013KT 33/06 A2987 RMK A01 T03310057  RH  018%=      5-min Rain = 0
KAD1 142004Z 25012KT 33/07 A2987 RMK A01 T03310067  RH  019%=      5-min Rain = 0
KAD1 142005Z 23012G19KT 33/06 A2986 RMK A01 T03310060  RH  018%=      5-min Rain = 0
KAD1 142006Z 24020KT 33/06 A2986 RMK A01 T03310060  RH  019%=      5-min Rain = 0
KAD1 142007Z 26017KT 33/06 A2987 RMK A01 T03300057  RH  018%=      5-min Rain = 0
KAD1 142008Z 27013KT 33/06 A2987 RMK A01 T03300055  RH  018%=      5-min Rain = 0
KAD1 142009Z 27016KT 33/05 A2987 RMK A01 T03310054  RH  018%=      5-min Rain = 0
KAD1 142010Z 28014KT 33/05 A2987 RMK A01 T03320051  RH  017%=      5-min Rain = 0
KAD1 142011Z 28013KT 33/06 A2987 RMK A01 T03310058  RH  018%=      5-min Rain = 0
KAD1 142012Z 28016KT 33/06 A2987 RMK A01 T03310060  RH  019%=      5-min Rain = 0
KAD1 142013Z 27014KT 33/06 A2987 RMK A01 T03310055  RH  018%=      5-min Rain = 0
KAD1 142014Z 27014KT 33/05 A2987 RMK A01 T03310052  RH  017%=      5-min Rain = 0
KAD1 142015Z 27014KT 33/05 A2987 RMK A01 T03310053  RH  018%=      5-min Rain = 0
KAD1 142016Z 28012KT 33/05 A2987 RMK A01 T03310052  RH  017%=      5-min Rain = 0
KAD1 142017Z 28014KT 33/05 A2987 RMK A01 T03310051  RH  017%=      5-min Rain = 0
KAD1 142018Z 28014KT 33/04 A2987 RMK A01 T03300044  RH  017%=      5-min Rain = 0
KAD1 142019Z 28012G18KT 33/05 A2987 RMK A01 T03300046  RH  017%=      5-min Rain = 0
KAD1 142020Z 27013KT 33/04 A2987 RMK A01 T03290043  RH  017%=      5-min Rain = 0
KAD1 142021Z 28013KT 33/05 A2987 RMK A01 T03280048  RH  017%=      5-min Rain = 0
KAD1 142022Z 27014KT 33/04 A2987 RMK A01 T03280041  RH  017%=      5-min Rain = 0
KAD1 142023Z 27012KT 33/05 A2987 RMK A01 T03280045  RH  017%=      5-min Rain = 0
KAD1 142024Z 27010KT 33/05 A2987 RMK A01 T03280051  RH  018%=      5-min Rain = 0
KAD1 142025Z 27009KT 33/05 A2986 RMK A01 T03280052  RH  018%=      5-min Rain = 0
KAD1 142026Z 28012KT 33/05 A2986 RMK A01 T03280050  RH  018%=      5-min Rain = 0
KAD1 142027Z 28013KT 33/03 A2986 RMK A01 T03280034  RH  016%=      5-min Rain = 0
KAD1 142028Z 28014KT 33/03 A2986 RMK A01 T03270031  RH  015%=      5-min Rain = 0
KAD1 142029Z 28013KT 33/03 A2986 RMK A01 T03270025  RH  015%=      5-min Rain = 0
KAD1 142030Z 28013KT 33/03 A2986 RMK A01 T03270031  RH  015%=      5-min Rain = 0
KAD1 142031Z 28011KT 33/04 A2986 RMK A01 T03270035  RH  016%=      5-min Rain = 0
KAD1 142032Z 27013KT 33/03 A2986 RMK A01 T03270029  RH  015%=      5-min Rain = 0
KAD1 142033Z 27012KT 33/03 A2986 RMK A01 T03260030  RH  015%=      5-min Rain = 0
KAD1 142034Z 28010KT 33/03 A2986 RMK A01 T03270031  RH  015%=      5-min Rain = 0
KAD1 142035Z 28011KT 33/04 A2986 RMK A01 T03270039  RH  016%=      5-min Rain = 0
KAD1 142036Z 28011KT 33/03 A2986 RMK A01 T03270034  RH  016%=      5-min Rain = 0
KAD1 142037Z 27011KT 33/03 A2986 RMK A01 T03270029  RH  015%=      5-min Rain = 0
KAD1 142038Z 28011KT 33/04 A2986 RMK A01 T03270040  RH  016%=      5-min Rain = 0
KAD1 142039Z 28011KT 33/04 A2986 RMK A01 T03270036  RH  016%=      5-min Rain = 0
KAD1 142040Z 28013KT 33/03 A2986 RMK A01 T03270034  RH  016%=      5-min Rain = 0
KAD1 142041Z 27010KT 33/04 A2986 RMK A01 T03260036  RH  016%=      5-min Rain = 0
KAD1 142042Z 28011KT 33/04 A2986 RMK A01 T03260044  RH  017%=      5-min Rain = 0
KAD1 142043Z 28012KT 33/04 A2986 RMK A01 T03260041  RH  017%=      5-min Rain = 0
KAD1 142044Z 28010KT 33/04 A2986 RMK A01 T03260035  RH  016%=      5-min Rain = 0
KAD1 142045Z 28010KT 33/04 A2986 RMK A01 T03250044  RH  017%=      5-min Rain = 0
KAD1 142046Z 27009KT 33/04 A2986 RMK A01 T03250044  RH  017%=      5-min Rain = 0
KAD1 142047Z 27008KT 33/05 A2986 RMK A01 T03250046  RH  017%=      5-min Rain = 0
KAD1 142048Z 27006KT 33/06 A2986 RMK A01 T03260060  RH  019%=      5-min Rain = 0
KAD1 142049Z 27008KT 33/06 A2986 RMK A01 T03270059  RH  019%=      5-min Rain = 0
KAD1 142050Z 28008KT 33/05 A2986 RMK A01 T03290054  RH  018%=      5-min Rain = 0
KAD1 142051Z 26007KT 33/06 A2985 RMK A01 T03310058  RH  018%=      5-min Rain = 0
KAD1 142052Z 28007KT 33/07 A2985 RMK A01 T03340074  RH  020%=      5-min Rain = 0
KAD1 142053Z 28006KT 34/06 A2985 RMK A01 T03370057  RH  017%=      5-min Rain = 0
KAD1 142054Z 27006KT 34/07 A2985 RMK A01 T03390071  RH  019%=      5-min Rain = 0
KAD1 142055Z 25006KT 34/06 A2985 RMK A01 T03420060  RH  017%=      5-min Rain = 0
KAD1 142056Z 27008KT 34/06 A2985 RMK A01 T03430055  RH  017%=      5-min Rain = 0
KAD1 142057Z 28009KT 34/04 A2985 RMK A01 T03430043  RH  015%=      5-min Rain = 0
KAD1 142058Z 27006KT 34/04 A2985 RMK A01 T03400039  RH  015%=      5-min Rain = 0
KAD1 142059Z 25007KT 34/05 A2985 RMK A01 T03390048  RH  016%=      5-min Rain = 0
KAD1 142100Z 26007KT 34/04 A2985 RMK A01 T03390040  RH  015%=      5-min Rain = 0
KAD1 142101Z 27007KT 34/04 A2985 RMK A01 T03380041  RH  016%=      5-min Rain = 0
KAD1 142102Z 27009KT 34/04 A2985 RMK A01 T03390042  RH  016%=      5-min Rain = 0
KAD1 142103Z 26010KT 34/05 A2985 RMK A01 T03410045  RH  016%=      5-min Rain = 0
KAD1 142104Z 26009KT 34/04 A2985 RMK A01 T03440042  RH  015%=      5-min Rain = 0
KAD1 142105Z 25009KT 35/04 A2985 RMK A01 T03450035  RH  014%=      5-min Rain = 0
KAD1 142106Z 26007KT 35/03 A2985 RMK A01 T03450034  RH  014%=      5-min Rain = 0
KAD1 142107Z 27009KT 35/04 A2985 RMK A01 T03450041  RH  015%=      5-min Rain = 0
KAD1 142108Z 26006KT 35/04 A2984 RMK A01 T03470044  RH  015%=      5-min Rain = 0
KAD1 142109Z 26008KT 35/04 A2984 RMK A01 T03480042  RH  015%=      5-min Rain = 0
KAD1 142110Z 23006G11KT 35/02 A2984 RMK A01 T03480021  RH  013%=      5-min Rain = 0
KAD1 142111Z 25007KT 35/04 A2984 RMK A01 T03470039  RH  015%=      5-min Rain = 0
KAD1 142112Z 25010KT 35/04 A2984 RMK A01 T03480043  RH  015%=      5-min Rain = 0
KAD1 142113Z 24012KT 35/04 A2984 RMK A01 T03490042  RH  015%=      5-min Rain = 0
KAD1 142114Z 24012KT 35/05 A2984 RMK A01 T03490046  RH  015%=      5-min Rain = 0
KAD1 142115Z 24017KT 35/05 A2984 RMK A01 T03500048  RH  015%=      5-min Rain = 0
KAD1 142116Z 25012KT 35/04 A2984 RMK A01 T03490038  RH  014%=      5-min Rain = 0
KAD1 142117Z 25011KT 35/05 A2984 RMK A01 T03480048  RH  015%=      5-min Rain = 0
KAD1 142118Z 24014G20KT 35/05 A2984 RMK A01 T03500051  RH  016%=      5-min Rain = 0
KAD1 142119Z 25013KT 35/03 A2984 RMK A01 T03500026  RH  013%=      5-min Rain = 0
KAD1 142120Z 27013KT 35/04 A2984 RMK A01 T03490036  RH  014%=      5-min Rain = 0
KAD1 142121Z 28015KT 35/04 A2984 RMK A01 T03510036  RH  014%=      5-min Rain = 0
KAD1 142122Z 27017G22KT 35/03 A2984 RMK A01 T03530034  RH  014%=      5-min Rain = 0
KAD1 142123Z 27016KT 35/03 A2984 RMK A01 T03540033  RH  013%=      5-min Rain = 0
KAD1 142124Z 27016KT 35/03 A2984 RMK A01 T03530026  RH  013%=      5-min Rain = 0
KAD1 142125Z 27014G21KT 35/03 A2984 RMK A01 T03490030  RH  014%=      5-min Rain = 0
KAD1 142126Z 26012KT 35/04 A2984 RMK A01 T03480042  RH  015%=      5-min Rain = 0
KAD1 142127Z 27015KT 35/04 A2984 RMK A01 T03490038  RH  014%=      5-min Rain = 0
KAD1 142128Z 27014G23KT 35/04 A2984 RMK A01 T03520043  RH  015%=      5-min Rain = 0
KAD1 142129Z 26021KT 36/04 A2984 RMK A01 T03550043  RH  014%=      5-min Rain = 0
KAD1 142130Z 27018KT 36/04 A2984 RMK A01 T03550037  RH  014%=      5-min Rain = 0
KAD1 142131Z 27018KT 35/03 A2984 RMK A01 T03540031  RH  013%=      5-min Rain = 0
KAD1 142132Z 26014KT 35/04 A2984 RMK A01 T03530037  RH  014%=      5-min Rain = 0
KAD1 142133Z 26012KT 35/04 A2984 RMK A01 T03540044  RH  015%=      5-min Rain = 0
KAD1 142134Z 27012KT 36/05 A2984 RMK A01 T03550045  RH  015%=      5-min Rain = 0
KAD1 142135Z 27013KT 36/05 A2984 RMK A01 T03560046  RH  015%=      5-min Rain = 0
KAD1 142136Z 26017KT 36/05 A2984 RMK A01 T03570048  RH  015%=      5-min Rain = 0
KAD1 142137Z 27015G21KT 36/04 A2984 RMK A01 T03570038  RH  014%=      5-min Rain = 0
KAD1 142138Z 27020G26KT 36/04 A2984 RMK A01 T03550039  RH  014%=      5-min Rain = 0
KAD1 142139Z 27018KT 36/03 A2984 RMK A01 T03550031  RH  013%=      5-min Rain = 0
KAD1 142140Z 26020KT 36/03 A2984 RMK A01 T03550032  RH  013%=      5-min Rain = 0
KAD1 142141Z 25020KT 35/04 A2984 RMK A01 T03540039  RH  014%=      5-min Rain = 0
KAD1 142142Z 25017KT 35/03 A2984 RMK A01 T03530029  RH  013%=      5-min Rain = 0
KAD1 142143Z 26018G24KT 35/03 A2984 RMK A01 T03520031  RH  013%=      5-min Rain = 0
KAD1 142144Z 25017KT 35/03 A2984 RMK A01 T03520033  RH  014%=      5-min Rain = 0
KAD1 142145Z 25014KT 35/04 A2984 RMK A01 T03530038  RH  014%=      5-min Rain = 0
KAD1 142146Z 25014KT 35/04 A2984 RMK A01 T03530040  RH  014%=      5-min Rain = 0
KAD1 142147Z 25014KT 35/04 A2984 RMK A01 T03540044  RH  015%=      5-min Rain = 0
KAD1 142148Z 25017KT 36/04 A2984 RMK A01 T03550035  RH  014%=      5-min Rain = 0
KAD1 142149Z 24015G20KT 35/03 A2983 RMK A01 T03530029  RH  013%=      5-min Rain = 0
KAD1 142150Z 24014KT 35/04 A2983 RMK A01 T03520037  RH  014%=      5-min Rain = 0
KAD1 142151Z 24014G19KT 35/03 A2983 RMK A01 T03510029  RH  013%=      5-min Rain = 0
KAD1 142152Z 25016G22KT 35/04 A2983 RMK A01 T03500035  RH  014%=      5-min Rain = 0
KAD1 142153Z 26015G20KT 35/03 A2983 RMK A01 T03510031  RH  014%=      5-min Rain = 0
KAD1 142154Z 25015KT 35/04 A2983 RMK A01 T03510035  RH  014%=      5-min Rain = 0
KAD1 142155Z 25017G23KT 35/04 A2983 RMK A01 T03520039  RH  014%=      5-min Rain = 0
KAD1 142156Z 24020G25KT 35/04 A2983 RMK A01 T03520035  RH  014%=      5-min Rain = 0
KAD1 142157Z 24018G25KT 35/03 A2983 RMK A01 T03520034  RH  014%=      5-min Rain = 0
KAD1 142158Z 25018G23KT 35/04 A2983 RMK A01 T03520041  RH  014%=      5-min Rain = 0
KAD1 142159Z 25020KT 35/04 A2983 RMK A01 T03520035  RH  014%=      5-min Rain = 0
KAD1 142200Z 25018KT 35/04 A2983 RMK A01 T03510039  RH  014%=      5-min Rain = 0
KAD1 142201Z 26015G21KT 35/04 A2983 RMK A01 T03520038  RH  014%=      5-min Rain = 0
KAD1 142202Z 27018KT 35/03 A2983 RMK A01 T03520031  RH  013%=      5-min Rain = 0
KAD1 142203Z 27016KT 35/02 A2983 RMK A01 T03500021  RH  013%=      5-min Rain = 0
KAD1 142204Z 27014KT 35/03 A2983 RMK A01 T03470027  RH  013%=      5-min Rain = 0
KAD1 142205Z 26015G20KT 34/03 A2983 RMK A01 T03440028  RH  014%=      5-min Rain = 0
KAD1 142206Z 26014KT 34/04 A2983 RMK A01 T03420036  RH  015%=      5-min Rain = 0
KAD1 142207Z 26017KT 34/03 A2983 RMK A01 T03440031  RH  014%=      5-min Rain = 0
KAD1 142208Z 26016KT 35/03 A2983 RMK A01 T03470026  RH  013%=      5-min Rain = 0
KAD1 142209Z 26014KT 35/03 A2983 RMK A01 T03480031  RH  014%=      5-min Rain = 0
KAD1 142210Z 27013G19KT 35/03 A2983 RMK A01 T03490033  RH  014%=      5-min Rain = 0
KAD1 142211Z 26016KT 35/03 A2983 RMK A01 T03500031  RH  014%=      5-min Rain = 0
KAD1 142212Z 26014KT 35/04 A2983 RMK A01 T03500035  RH  014%=      5-min Rain = 0
KAD1 142213Z 26013KT 35/04 A2983 RMK A01 T03500040  RH  014%=      5-min Rain = 0
KAD1 142214Z 27012KT 35/05 A2982 RMK A01 T03510046  RH  015%=      5-min Rain = 0
KAD1 142215Z 26015KT 35/04 A2982 RMK A01 T03520040  RH  014%=      5-min Rain = 0
KAD1 142216Z 26013KT 35/04 A2982 RMK A01 T03520040  RH  014%=      5-min Rain = 0
KAD1 142217Z 26015KT 35/04 A2982 RMK A01 T03520042  RH  015%=      5-min Rain = 0
KAD1 142218Z 27011KT 35/04 A2982 RMK A01 T03520040  RH  014%=      5-min Rain = 0
KAD1 142219Z 27015G23KT 35/04 A2982 RMK A01 T03520042  RH  015%=      5-min Rain = 0
KAD1 142220Z 28016KT 35/03 A2982 RMK A01 T03520031  RH  013%=      5-min Rain = 0
KAD1 142221Z 28015KT 35/03 A2982 RMK A01 T03510033  RH  014%=      5-min Rain = 0
KAD1 142222Z 27014KT 35/03 A2982 RMK A01 T03500030  RH  013%=      5-min Rain = 0
KAD1 142223Z 26013KT 35/03 A2982 RMK A01 T03490032  RH  014%=      5-min Rain = 0
KAD1 142224Z 26014G19KT 35/04 A2982 RMK A01 T03500038  RH  014%=      5-min Rain = 0
KAD1 142225Z 24016KT 35/05 A2982 RMK A01 T03510045  RH  015%=      5-min Rain = 0
KAD1 142226Z 24017G22KT 35/04 A2982 RMK A01 T03520037  RH  014%=      5-min Rain = 0
KAD1 142227Z 25019G25KT 35/04 A2982 RMK A01 T03510035  RH  014%=      5-min Rain = 0
KAD1 142228Z 24020KT 35/03 A2982 RMK A01 T03510031  RH  014%=      5-min Rain = 0
KAD1 142229Z 24020G25KT 35/03 A2982 RMK A01 T03500032  RH  014%=      5-min Rain = 0
KAD1 142230Z 23024KT 35/02 A2981 RMK A01 T03480023  RH  013%=      5-min Rain = 0
KAD1 142231Z 24017G23KT 35/02 A2982 RMK A01 T03460021  RH  013%=      5-min Rain = 0
KAD1 142232Z 26017G24KT 35/03 A2982 RMK A01 T03470033  RH  014%=      5-min Rain = 0
KAD1 142233Z 26019G26KT 35/04 A2982 RMK A01 T03490035  RH  014%=      5-min Rain = 0
KAD1 142234Z 25020KT 35/03 A2982 RMK A01 T03490030  RH  014%=      5-min Rain = 0
KAD1 142235Z 25019KT 35/03 A2982 RMK A01 T03460027  RH  014%=      5-min Rain = 0
KAD1 142236Z 25020KT 35/03 A2982 RMK A01 T03450025  RH  013%=      5-min Rain = 0
KAD1 142237Z 25019KT 35/03 A2982 RMK A01 T03460025  RH  013%=      5-min Rain = 0
KAD1 142238Z 24014KT 35/04 A2981 RMK A01 T03470036  RH  014%=      5-min Rain = 0
KAD1 142239Z 24018KT 35/04 A2981 RMK A01 T03470037  RH  014%=      5-min Rain = 0
KAD1 142240Z 24017G22KT 35/03 A2981 RMK A01 T03480033  RH  014%=      5-min Rain = 0
KAD1 142241Z 24015G21KT 35/03 A2981 RMK A01 T03480030  RH  014%=      5-min Rain = 0
KAD1 142242Z 23019KT 35/04 A2981 RMK A01 T03490040  RH  015%=      5-min Rain = 0
KAD1 142243Z 24018KT 35/03 A2981 RMK A01 T03490031  RH  014%=      5-min Rain = 0
KAD1 142244Z 24015KT 35/04 A2981 RMK A01 T03480037  RH  014%=      5-min Rain = 0
KAD1 142245Z 24014KT 35/04 A2981 RMK A01 T03480036  RH  014%=      5-min Rain = 0
KAD1 142246Z 25014KT 35/03 A2981 RMK A01 T03480029  RH  014%=      5-min Rain = 0
KAD1 142247Z 26013KT 35/03 A2981 RMK A01 T03470028  RH  014%=      5-min Rain = 0
KAD1 142248Z 25014KT 35/03 A2981 RMK A01 T03470031  RH  014%=      5-min Rain = 0
KAD1 142249Z 25015G23KT 35/04 A2981 RMK A01 T03480042  RH  015%=      5-min Rain = 0
KAD1 142250Z 26019G24KT 35/04 A2981 RMK A01 T03500044  RH  015%=      5-min Rain = 0
KAD1 142251Z 24018KT 35/05 A2981 RMK A01 T03530045  RH  015%=      5-min Rain = 0
KAD1 142252Z 25015KT 35/04 A2981 RMK A01 T03520039  RH  014%=      5-min Rain = 0
KAD1 142253Z 25016KT 35/04 A2981 RMK A01 T03520036  RH  014%=      5-min Rain = 0
KAD1 142254Z 26015KT 35/04 A2981 RMK A01 T03520038  RH  014%=      5-min Rain = 0
KAD1 142255Z 27016KT 35/03 A2981 RMK A01 T03510032  RH  014%=      5-min Rain = 0
KAD1 142256Z 26017KT 35/03 A2981 RMK A01 T03510028  RH  013%=      5-min Rain = 0
KAD1 142257Z 26017KT 35/03 A2981 RMK A01 T03500034  RH  014%=      5-min Rain = 0
KAD1 142258Z 26017KT 35/04 A2981 RMK A01 T03500041  RH  015%=      5-min Rain = 0
KAD1 142259Z 25018KT 35/03 A2981 RMK A01 T03500033  RH  014%=      5-min Rain = 0
KAD1 142300Z 25015KT 35/03 A298 RMK A01 T03490029  RH  013%=      5-min Rain = 0
KAD1 142301Z 25019G26KT 35/03 A2981 RMK A01 T03480027  RH  013%=      5-min Rain = 0
KAD1 142302Z 25020KT 35/02 A298 RMK A01 T03480021  RH  013%=      5-min Rain = 0
KAD1 142303Z 24024G29KT 35/02 A298 RMK A01 T03480018  RH  013%=      5-min Rain = 0
KAD1 142304Z 24022KT 35/02 A298 RMK A01 T03470018  RH  013%=      5-min Rain = 0
KAD1 142305Z 25020KT 35/02 A298 RMK A01 T03470015  RH  012%=      5-min Rain = 0
KAD1 142306Z 25016KT 35/02 A298 RMK A01 T03460017  RH  013%=      5-min Rain = 0
KAD1 142307Z 25015KT 35/02 A298 RMK A01 T03460021  RH  013%=      5-min Rain = 0
KAD1 142308Z 24015G21KT 35/02 A298 RMK A01 T03460024  RH  013%=      5-min Rain = 0
KAD1 142309Z 23018KT 35/02 A298 RMK A01 T03470022  RH  013%=      5-min Rain = 0
KAD1 142310Z 23014KT 35/02 A298 RMK A01 T03460018  RH  013%=      5-min Rain = 0
KAD1 142311Z 23015KT 35/03 A298 RMK A01 T03460027  RH  013%=      5-min Rain = 0
KAD1 142312Z 25014KT 35/03 A298 RMK A01 T03460025  RH  013%=      5-min Rain = 0
KAD1 142313Z 25015KT 35/03 A298 RMK A01 T03470031  RH  014%=      5-min Rain = 0
KAD1 142314Z 24017KT 35/02 A298 RMK A01 T03470022  RH  013%=      5-min Rain = 0
KAD1 142315Z 24013G19KT 35/02 A298 RMK A01 T03470016  RH  012%=      5-min Rain = 0
KAD1 142316Z 24017G22KT 35/03 A298 RMK A01 T03470032  RH  014%=      5-min Rain = 0
KAD1 142317Z 25012G17KT 35/03 A298 RMK A01 T03470031  RH  014%=      5-min Rain = 0
KAD1 142318Z 25013KT 35/04 A298 RMK A01 T03480037  RH  014%=      5-min Rain = 0
KAD1 142319Z 24015KT 35/04 A298 RMK A01 T03490037  RH  014%=      5-min Rain = 0
KAD1 142320Z 24018G24KT 35/03 A298 RMK A01 T03490029  RH  013%=      5-min Rain = 0
KAD1 142321Z 24018KT 35/02 A298 RMK A01 T03490020  RH  013%=      5-min Rain = 0
KAD1 142322Z 25017KT 35/03 A298 RMK A01 T03480028  RH  013%=      5-min Rain = 0
KAD1 142323Z 24021KT 35/02 A298 RMK A01 T03480024  RH  013%=      5-min Rain = 0
KAD1 142324Z 25019KT 35/02 A298 RMK A01 T03480016  RH  012%=      5-min Rain = 0
KAD1 142325Z 25021KT 35/01 A298 RMK A01 T03470012  RH  012%=      5-min Rain = 0
KAD1 142326Z 25014KT 35/02 A298 RMK A01 T03460020  RH  013%=      5-min Rain = 0
KAD1 142327Z 25019KT 35/02 A298 RMK A01 T03460018  RH  013%=      5-min Rain = 0
KAD1 142328Z 25017KT 34/01 A298 RMK A01 T03440010  RH  012%=      5-min Rain = 0
KAD1 142329Z 25019KT 34/01 A298 RMK A01 T03410005  RH  012%=      5-min Rain = 0
KAD1 142330Z 25017KT 34/01 A298 RMK A01 T03410007  RH  012%=      5-min Rain = 0
KAD1 142331Z 24014KT 34/01 A2979 RMK A01 T03390011  RH  013%=      5-min Rain = 0
KAD1 142332Z 24018KT 34/01 A2979 RMK A01 T03360011  RH  013%=      5-min Rain = 0
KAD1 142333Z 24016KT 34/01 A2979 RMK A01 T03350009  RH  013%=      5-min Rain = 0
KAD1 142334Z 25014KT 34/02 A2979 RMK A01 T03380015  RH  013%=      5-min Rain = 0
KAD1 142335Z 24012KT 34/02 A2979 RMK A01 T03410019  RH  013%=      5-min Rain = 0
KAD1 142336Z 24012KT 34/02 A2979 RMK A01 T03420019  RH  013%=      5-min Rain = 0
KAD1 142337Z 25013KT 34/02 A2979 RMK A01 T03440024  RH  013%=      5-min Rain = 0
KAD1 142338Z 23014G20KT 35/03 A2979 RMK A01 T03450026  RH  014%=      5-min Rain = 0
KAD1 142339Z 23019KT 35/02 A2979 RMK A01 T03450018  RH  013%=      5-min Rain = 0
KAD1 142340Z 23021G26KT 35/02 A2979 RMK A01 T03450017  RH  013%=      5-min Rain = 0
KAD1 142341Z 24019KT 35/02 A2979 RMK A01 T03450019  RH  013%=      5-min Rain = 0
KAD1 142342Z 24020KT 35/02 A2979 RMK A01 T03450016  RH  013%=      5-min Rain = 0
KAD1 142343Z 25019G24KT 34/02 A2979 RMK A01 T03440016  RH  013%=      5-min Rain = 0
KAD1 142344Z 25018KT 34/02 A2979 RMK A01 T03440021  RH  013%=      5-min Rain = 0
KAD1 142345Z 24017KT 34/02 A2979 RMK A01 T03430015  RH  013%=      5-min Rain = 0
KAD1 142346Z 24018KT 34/01 A2979 RMK A01 T03410013  RH  012%=      5-min Rain = 0
KAD1 142347Z 24016KT 34/01 A2979 RMK A01 T03380012  RH  013%=      5-min Rain = 0
KAD1 142348Z 25015KT 34/01 A2979 RMK A01 T03350012  RH  013%=      5-min Rain = 0
KAD1 142349Z 25014KT 33/02 A2979 RMK A01 T03330015  RH  013%=      5-min Rain = 0
KAD1 142350Z 25016KT 33/01 A2979 RMK A01 T03340013  RH  013%=      5-min Rain = 0
KAD1 142351Z 24018KT 34/01 A2979 RMK A01 T03370014  RH  013%=      5-min Rain = 0
KAD1 142352Z 24016KT 34/02 A2979 RMK A01 T03400018  RH  013%=      5-min Rain = 0
KAD1 142353Z 25016KT 34/02 A2979 RMK A01 T03410018  RH  013%=      5-min Rain = 0
KAD1 142354Z 25015KT 34/01 A2979 RMK A01 T03410012  RH  012%=      5-min Rain = 0
KAD1 142355Z 25013KT 34/02 A2979 RMK A01 T03420019  RH  013%=      5-min Rain = 0
KAD1 142356Z 24017G22KT 34/03 A2979 RMK A01 T03420026  RH  014%=      5-min Rain = 0
KAD1 142357Z 26023G29KT 34/02 A2979 RMK A01 T03420023  RH  013%=      5-min Rain = 0
KAD1 142358Z 26018G23KT 34/02 A2979 RMK A01 T03430022  RH  013%=      5-min Rain = 0
KAD1 142359Z 26018G23KT 34/03 A2979 RMK A01 T03430027  RH  014%=      5-min Rain = 0
KAD1 150000Z 25021KT 34/02 A2979 RMK A01 T03420020  RH  013%=      5-min Rain = 0
KAD1 150001Z 25022KT 34/02 A2979 RMK A01 T03420020  RH  013%=      5-min Rain = 0
KAD1 150002Z 25018KT 34/02 A2979 RMK A01 T03410021  RH  013%=      5-min Rain = 0
KAD1 150003Z 25018G23KT 34/03 A2979 RMK A01 T03400027  RH  014%=      5-min Rain = 0
KAD1 150004Z 25017G23KT 34/03 A2979 RMK A01 T03400026  RH  014%=      5-min Rain = 0
KAD1 150005Z 25019G25KT 34/02 A2979 RMK A01 T03390022  RH  014%=      5-min Rain = 0
KAD1 150006Z 25019KT 34/02 A2979 RMK A01 T03400018  RH  013%=      5-min Rain = 0
KAD1 150007Z 25019G24KT 34/02 A2979 RMK A01 T03390023  RH  014%=      5-min Rain = 0
KAD1 150008Z 26020KT 34/02 A2979 RMK A01 T03390019  RH  013%=      5-min Rain = 0
KAD1 150009Z 25018KT 34/02 A2979 RMK A01 T03390021  RH  013%=      5-min Rain = 0
KAD1 150010Z 25016G21KT 34/02 A2978 RMK A01 T03380022  RH  014%=      5-min Rain = 0
KAD1 150011Z 25016KT 34/02 A2979 RMK A01 T03380022  RH  014%=      5-min Rain = 0
KAD1 150012Z 24013KT 34/03 A2979 RMK A01 T03380026  RH  014%=      5-min Rain = 0
KAD1 150013Z 24015G20KT 34/03 A2978 RMK A01 T03350030  RH  015%=      5-min Rain = 0
KAD1 150014Z 24020KT 34/02 A2978 RMK A01 T03350021  RH  014%=      5-min Rain = 0
KAD1 150015Z 24018G24KT 34/02 A2978 RMK A01 T03360017  RH  013%=      5-min Rain = 0
KAD1 150016Z 25014G19KT 34/03 A2978 RMK A01 T03370028  RH  014%=      5-min Rain = 0
KAD1 150017Z 25019KT 34/02 A2978 RMK A01 T03370023  RH  014%=      5-min Rain = 0
KAD1 150018Z 25016KT 34/02 A2978 RMK A01 T03370022  RH  014%=      5-min Rain = 0
KAD1 150019Z 25017KT 34/02 A2978 RMK A01 T03370022  RH  014%=      5-min Rain = 0
KAD1 150020Z 25015KT 34/02 A2978 RMK A01 T03370024  RH  014%=      5-min Rain = 0
KAD1 150021Z 25013KT 34/03 A2978 RMK A01 T03370028  RH  014%=      5-min Rain = 0
KAD1 150022Z 26014KT 34/03 A2978 RMK A01 T03370029  RH  014%=      5-min Rain = 0
KAD1 150023Z 25016KT 34/03 A2978 RMK A01 T03360028  RH  014%=      5-min Rain = 0
KAD1 150024Z 25017KT 34/02 A2978 RMK A01 T03360023  RH  014%=      5-min Rain = 0
KAD1 150025Z 25018G23KT 34/02 A2978 RMK A01 T03360021  RH  014%=      5-min Rain = 0
KAD1 150026Z 25017KT 34/02 A2978 RMK A01 T03370022  RH  014%=      5-min Rain = 0
KAD1 150027Z 25016KT 34/03 A2978 RMK A01 T03370027  RH  014%=      5-min Rain = 0
KAD1 150028Z 24013KT 34/03 A2978 RMK A01 T03360028  RH  014%=      5-min Rain = 0
KAD1 150029Z 24013G18KT 34/04 A2978 RMK A01 T03360036  RH  015%=      5-min Rain = 0
KAD1 150030Z 24015G21KT 34/03 A2978 RMK A01 T03350028  RH  014%=      5-min Rain = 0
KAD1 150031Z 24018KT 34/02 A2978 RMK A01 T03350018  RH  013%=      5-min Rain = 0
KAD1 150032Z 24016KT 34/02 A2978 RMK A01 T03360018  RH  013%=      5-min Rain = 0
KAD1 150033Z 24018KT 34/02 A2978 RMK A01 T03360022  RH  014%=      5-min Rain = 0
KAD1 150034Z 24015KT 34/02 A2978 RMK A01 T03350023  RH  014%=      5-min Rain = 0
KAD1 150035Z 24016KT 33/02 A2978 RMK A01 T03340023  RH  014%=      5-min Rain = 0
KAD1 150036Z 24015KT 33/02 A2978 RMK A01 T03340020  RH  014%=      5-min Rain = 0
KAD1 150037Z 24015KT 33/02 A2978 RMK A01 T03340021  RH  014%=      5-min Rain = 0
KAD1 150038Z 24014KT 33/03 A2978 RMK A01 T03340028  RH  015%=      5-min Rain = 0
KAD1 150039Z 23013KT 33/03 A2978 RMK A01 T03330028  RH  015%=      5-min Rain = 0
KAD1 150040Z 24015KT 33/02 A2978 RMK A01 T03320023  RH  014%=      5-min Rain = 0
KAD1 150041Z 24015KT 33/02 A2978 RMK A01 T03320019  RH  014%=      5-min Rain = 0
KAD1 150042Z 24012KT 33/02 A2978 RMK A01 T03330021  RH  014%=      5-min Rain = 0
KAD1 150043Z 24015KT 33/03 A2978 RMK A01 T03320025  RH  014%=      5-min Rain = 0
KAD1 150044Z 23016G21KT 33/03 A2978 RMK A01 T03320027  RH  015%=      5-min Rain = 0
KAD1 150045Z 24015G20KT 33/02 A2978 RMK A01 T03320022  RH  014%=      5-min Rain = 0
KAD1 150046Z 24015G20KT 33/03 A2978 RMK A01 T03320025  RH  014%=      5-min Rain = 0
KAD1 150047Z 24014KT 33/03 A2978 RMK A01 T03310027  RH  015%=      5-min Rain = 0
KAD1 150048Z 24014KT 33/03 A2978 RMK A01 T03300028  RH  015%=      5-min Rain = 0
KAD1 150049Z 24015G20KT 33/03 A2978 RMK A01 T03300025  RH  015%=      5-min Rain = 0
KAD1 150050Z 24017KT 33/02 A2978 RMK A01 T03310019  RH  014%=      5-min Rain = 0
KAD1 150051Z 24016KT 33/02 A2978 RMK A01 T03310022  RH  014%=      5-min Rain = 0
KAD1 150052Z 24013KT 33/02 A2978 RMK A01 T03310022  RH  014%=      5-min Rain = 0
KAD1 150053Z 24014KT 33/03 A2978 RMK A01 T03310027  RH  015%=      5-min Rain = 0
KAD1 150054Z 24015G20KT 33/02 A2978 RMK A01 T03300021  RH  014%=      5-min Rain = 0
KAD1 150055Z 25015KT 33/02 A2978 RMK A01 T03300023  RH  014%=      5-min Rain = 0
KAD1 150056Z 25014KT 33/02 A2978 RMK A01 T03300022  RH  014%=      5-min Rain = 0
KAD1 150057Z 24011KT 33/03 A2978 RMK A01 T03290029  RH  015%=      5-min Rain = 0
KAD1 150058Z 25011KT 33/03 A2978 RMK A01 T03270031  RH  015%=      5-min Rain = 0
KAD1 150059Z 25010KT 33/03 A2978 RMK A01 T03260030  RH  015%=      5-min Rain = 0
KAD1 150100Z 25012KT 33/03 A2978 RMK A01 T03250031  RH  016%=      5-min Rain = 0
KAD1 150101Z 25017G22KT 33/03 A2978 RMK A01 T03250025  RH  015%=      5-min Rain = 0
KAD1 150102Z 25016KT 33/02 A2978 RMK A01 T03260018  RH  014%=      5-min Rain = 0
KAD1 150103Z 25015KT 33/02 A2978 RMK A01 T03270018  RH  014%=      5-min Rain = 0
KAD1 150104Z 24013KT 33/02 A2978 RMK A01 T03280023  RH  015%=      5-min Rain = 0
KAD1 150105Z 24012KT 33/03 A2978 RMK A01 T03260025  RH  015%=      5-min Rain = 0
KAD1 150106Z 25014KT 33/03 A2978 RMK A01 T03250026  RH  015%=      5-min Rain = 0
KAD1 150107Z 25011KT 32/02 A2978 RMK A01 T03240023  RH  015%=      5-min Rain = 0
KAD1 150108Z 25012KT 32/03 A2978 RMK A01 T03230027  RH  015%=      5-min Rain = 0
KAD1 150109Z 24011KT 32/03 A2978 RMK A01 T03220025  RH  015%=      5-min Rain = 0
KAD1 150110Z 24013KT 32/03 A2978 RMK A01 T03210025  RH  015%=      5-min Rain = 0
KAD1 150111Z 24013KT 32/02 A2978 RMK A01 T03200023  RH  015%=      5-min Rain = 0
KAD1 150112Z 25010KT 32/03 A2978 RMK A01 T03190025  RH  015%=      5-min Rain = 0
KAD1 150113Z 24011KT 32/03 A2978 RMK A01 T03180026  RH  016%=      5-min Rain = 0
KAD1 150114Z 24011KT 32/03 A2978 RMK A01 T03180025  RH  016%=      5-min Rain = 0
KAD1 150115Z 24011KT 32/03 A2978 RMK A01 T03170027  RH  016%=      5-min Rain = 0
KAD1 150116Z 24012KT 32/02 A2978 RMK A01 T03170022  RH  015%=      5-min Rain = 0
KAD1 150117Z 24010KT 32/02 A2978 RMK A01 T03180023  RH  015%=      5-min Rain = 0
KAD1 150118Z 24011KT 32/03 A2978 RMK A01 T03180027  RH  016%=      5-min Rain = 0
KAD1 150119Z 24009KT 32/03 A2978 RMK A01 T03180028  RH  016%=      5-min Rain = 0
KAD1 150120Z 24009KT 32/03 A2978 RMK A01 T03160032  RH  017%=      5-min Rain = 0
KAD1 150121Z 24010KT 31/03 A2978 RMK A01 T03140032  RH  017%=      5-min Rain = 0
KAD1 150122Z 24010KT 31/03 A2978 RMK A01 T03130034  RH  017%=      5-min Rain = 0
KAD1 150123Z 24011KT 31/03 A2978 RMK A01 T03110029  RH  017%=      5-min Rain = 0
KAD1 150124Z 25010KT 31/03 A2978 RMK A01 T03120027  RH  016%=      5-min Rain = 0
KAD1 150125Z 24010KT 31/03 A2978 RMK A01 T03120033  RH  017%=      5-min Rain = 0
KAD1 150126Z 25009KT 31/03 A2978 RMK A01 T03100034  RH  017%=      5-min Rain = 0
KAD1 150127Z 25009KT 31/03 A2978 RMK A01 T03090034  RH  017%=      5-min Rain = 0
KAD1 150128Z 26008KT 31/04 A2978 RMK A01 T03080035  RH  018%=      5-min Rain = 0
KAD1 150129Z 26007KT 31/04 A2978 RMK A01 T03060038  RH  018%=      5-min Rain = 0
KAD1 150130Z 26007KT 31/04 A2978 RMK A01 T03050040  RH  019%=      5-min Rain = 0
KAD1 150131Z 26007KT 30/04 A2978 RMK A01 T03030043  RH  019%=      5-min Rain = 0
KAD1 150132Z 25007KT 30/05 A2978 RMK A01 T03010045  RH  020%=      5-min Rain = 0
KAD1 150133Z 24007KT 30/05 A2978 RMK A01 T02980046  RH  020%=      5-min Rain = 0
KAD1 150134Z 24007KT 30/04 A2978 RMK A01 T02960044  RH  020%=      5-min Rain = 0
KAD1 150135Z 24007KT 30/04 A2978 RMK A01 T02960043  RH  020%=      5-min Rain = 0
KAD1 150136Z 24007KT 30/04 A2978 RMK A01 T02950044  RH  020%=      5-min Rain = 0
KAD1 150137Z 24007KT 30/04 A2978 RMK A01 T02950044  RH  020%=      5-min Rain = 0
KAD1 150138Z 24008KT 29/04 A2978 RMK A01 T02940040  RH  020%=      5-min Rain = 0
KAD1 150139Z 23008KT 30/04 A2978 RMK A01 T02950038  RH  019%=      5-min Rain = 0
KAD1 150140Z 23008KT 30/04 A2978 RMK A01 T02950041  RH  020%=      5-min Rain = 0
KAD1 150141Z 23007KT 29/04 A2978 RMK A01 T02940042  RH  020%=      5-min Rain = 0
KAD1 150142Z 23008KT 29/04 A2978 RMK A01 T02920042  RH  020%=      5-min Rain = 0
KAD1 150143Z 23008KT 29/04 A2978 RMK A01 T02890042  RH  021%=      5-min Rain = 0
KAD1 150144Z 23008KT 29/04 A2978 RMK A01 T02860041  RH  021%=      5-min Rain = 0
KAD1 150145Z 23008KT 29/04 A2978 RMK A01 T02850039  RH  021%=      5-min Rain = 0
KAD1 150146Z 23009KT 29/04 A2978 RMK A01 T02850036  RH  020%=      5-min Rain = 0
KAD1 150147Z 23009KT 29/04 A2978 RMK A01 T02850036  RH  020%=      5-min Rain = 0
KAD1 150148Z 23009KT 28/04 A2978 RMK A01 T02840035  RH  020%=      5-min Rain = 0
KAD1 150149Z 23009KT 28/03 A2978 RMK A01 T02840034  RH  020%=      5-min Rain = 0
KAD1 150150Z 23008KT 29/03 A2978 RMK A01 T02850033  RH  020%=      5-min Rain = 0
KAD1 150151Z 22009KT 29/04 A2978 RMK A01 T02850037  RH  020%=      5-min Rain = 0
KAD1 150152Z 22010KT 28/04 A2978 RMK A01 T02840036  RH  020%=      5-min Rain = 0
KAD1 150153Z 22010KT 28/03 A2978 RMK A01 T02840034  RH  020%=      5-min Rain = 0
KAD1 150154Z 23009KT 29/04 A2978 RMK A01 T02860035  RH  020%=      5-min Rain = 0
KAD1 150155Z 23009KT 29/04 A2978 RMK A01 T02860037  RH  020%=      5-min Rain = 0
KAD1 150156Z 23009KT 29/04 A2978 RMK A01 T02860038  RH  020%=      5-min Rain = 0
KAD1 150157Z 23008KT 29/04 A2978 RMK A01 T02850038  RH  021%=      5-min Rain = 0
KAD1 150158Z 23009KT 28/04 A2978 RMK A01 T02840040  RH  021%=      5-min Rain = 0
KAD1 150159Z 24008KT 28/04 A2978 RMK A01 T02830040  RH  021%=      5-min Rain = 0
KAD1 150200Z 24008KT 28/04 A2978 RMK A01 T02820040  RH  021%=      5-min Rain = 0
KAD1 150201Z 23007KT 28/04 A2978 RMK A01 T02810041  RH  022%=      5-min Rain = 0
KAD1 150202Z 23007KT 28/04 A2978 RMK A01 T02790043  RH  022%=      5-min Rain = 0
KAD1 150203Z 23007KT 28/05 A2978 RMK A01 T02770046  RH  023%=      5-min Rain = 0
KAD1 150204Z 22007KT 27/05 A2978 RMK A01 T02740046  RH  023%=      5-min Rain = 0
KAD1 150205Z 22007KT 27/05 A2978 RMK A01 T02710047  RH  024%=      5-min Rain = 0
KAD1 150206Z 22008KT 27/05 A2978 RMK A01 T02680047  RH  024%=      5-min Rain = 0
KAD1 150207Z 22008KT 27/05 A2978 RMK A01 T02650049  RH  025%=      5-min Rain = 0
KAD1 150208Z 22008KT 26/05 A2978 RMK A01 T02620050  RH  026%=      5-min Rain = 0
KAD1 150209Z 23007KT 26/05 A2978 RMK A01 T02600049  RH  026%=      5-min Rain = 0
KAD1 150210Z 22007KT 26/05 A2978 RMK A01 T02580051  RH  026%=      5-min Rain = 0
KAD1 150211Z 22008KT 26/05 A2978 RMK A01 T02550052  RH  027%=      5-min Rain = 0
KAD1 150212Z 23008KT 25/05 A2978 RMK A01 T02540050  RH  027%=      5-min Rain = 0
KAD1 150213Z 23008KT 26/05 A2978 RMK A01 T02550045  RH  026%=      5-min Rain = 0
KAD1 150214Z 22007KT 26/04 A2978 RMK A01 T02580044  RH  025%=      5-min Rain = 0
KAD1 150215Z 22007KT 26/04 A2978 RMK A01 T02590044  RH  025%=      5-min Rain = 0
KAD1 150216Z 22008KT 26/05 A2978 RMK A01 T02590045  RH  025%=      5-min Rain = 0
KAD1 150217Z 22009KT 26/05 A2978 RMK A01 T02560046  RH  026%=      5-min Rain = 0
KAD1 150218Z 22010KT 25/05 A2978 RMK A01 T02520047  RH  027%=      5-min Rain = 0
KAD1 150219Z 22010KT 25/05 A2978 RMK A01 T02480046  RH  027%=      5-min Rain = 0
KAD1 150220Z 22010KT 25/05 A2978 RMK A01 T02460045  RH  027%=      5-min Rain = 0
KAD1 150221Z 22011KT 25/04 A2978 RMK A01 T02460043  RH  027%=      5-min Rain = 0
KAD1 150222Z 21011KT 25/04 A2978 RMK A01 T02470042  RH  027%=      5-min Rain = 0
KAD1 150223Z 21011KT 25/04 A2978 RMK A01 T02480042  RH  026%=      5-min Rain = 0
KAD1 150224Z 21011KT 25/04 A2978 RMK A01 T02490042  RH  026%=      5-min Rain = 0
KAD1 150225Z 21012KT 25/04 A2978 RMK A01 T02500042  RH  026%=      5-min Rain = 0
KAD1 150226Z 21011KT 25/04 A2978 RMK A01 T02510042  RH  026%=      5-min Rain = 0
KAD1 150227Z 21011KT 25/04 A2978 RMK A01 T02510041  RH  026%=      5-min Rain = 0
KAD1 150228Z 22011KT 25/04 A2978 RMK A01 T02510042  RH  026%=      5-min Rain = 0
KAD1 150229Z 21010KT 25/04 A2978 RMK A01 T02510042  RH  026%=      5-min Rain = 0
KAD1 150230Z 21010KT 25/04 A2978 RMK A01 T02500043  RH  026%=      5-min Rain = 0
KAD1 150231Z 21010KT 25/04 A2978 RMK A01 T02480042  RH  026%=      5-min Rain = 0
KAD1 150232Z 22010KT 25/04 A2978 RMK A01 T02480043  RH  027%=      5-min Rain = 0
KAD1 150233Z 22011KT 25/04 A2978 RMK A01 T02470040  RH  026%=      5-min Rain = 0
KAD1 150234Z 22010KT 25/04 A2978 RMK A01 T02480040  RH  026%=      5-min Rain = 0
KAD1 150235Z 23010KT 25/04 A2978 RMK A01 T02490040  RH  026%=      5-min Rain = 0
KAD1 150236Z 22010KT 25/04 A2979 RMK A01 T02500037  RH  025%=      5-min Rain = 0
KAD1 150237Z 22010KT 25/04 A2979 RMK A01 T02520038  RH  025%=      5-min Rain = 0
KAD1 150238Z 22010KT 25/04 A2979 RMK A01 T02520038  RH  025%=      5-min Rain = 0
KAD1 150239Z 22010KT 25/04 A2979 RMK A01 T02520039  RH  025%=      5-min Rain = 0
KAD1 150240Z 22010KT 25/04 A2979 RMK A01 T02520040  RH  025%=      5-min Rain = 0
KAD1 150241Z 22011KT 25/04 A2979 RMK A01 T02510038  RH  025%=      5-min Rain = 0
KAD1 150242Z 22011KT 25/04 A2979 RMK A01 T02520036  RH  025%=      5-min Rain = 0
KAD1 150243Z 22010KT 26/04 A2979 RMK A01 T02550036  RH  024%=      5-min Rain = 0
KAD1 150244Z 22010KT 26/04 A2979 RMK A01 T02560035  RH  024%=      5-min Rain = 0
KAD1 150245Z 22011KT 26/03 A2979 RMK A01 T02570033  RH  023%=      5-min Rain = 0
KAD1 150246Z 21011KT 26/03 A2979 RMK A01 T02590033  RH  023%=      5-min Rain = 0
KAD1 150247Z 22010KT 26/03 A2979 RMK A01 T02590034  RH  023%=      5-min Rain = 0
KAD1 150248Z 22010KT 26/03 A2979 RMK A01 T02600034  RH  023%=      5-min Rain = 0
KAD1 150249Z 21011KT 26/03 A2979 RMK A01 T02600033  RH  023%=      5-min Rain = 0
KAD1 150250Z 21010KT 26/03 A2979 RMK A01 T02610034  RH  023%=      5-min Rain = 0
KAD1 150251Z 21009KT 26/04 A2979 RMK A01 T02600037  RH  024%=      5-min Rain = 0
KAD1 150252Z 21009KT 26/04 A2979 RMK A01 T02580038  RH  024%=      5-min Rain = 0
KAD1 150253Z 20010KT 26/04 A2979 RMK A01 T02550040  RH  025%=      5-min Rain = 0
KAD1 150254Z 20010KT 25/04 A2979 RMK A01 T02520041  RH  026%=      5-min Rain = 0
KAD1 150255Z 19010KT 25/04 A2979 RMK A01 T02490042  RH  026%=      5-min Rain = 0
KAD1 150256Z 18008KT 25/04 A2979 RMK A01 T02460044  RH  027%=      5-min Rain = 0
KAD1 150257Z 18009KT 24/05 A2979 RMK A01 T02430047  RH  028%=      5-min Rain = 0
KAD1 150258Z 19010KT 24/05 A2979 RMK A01 T02400048  RH  029%=      5-min Rain = 0
KAD1 150259Z 19011KT 24/05 A2979 RMK A01 T02370048  RH  029%=      5-min Rain = 0
KAD1 150300Z 19012KT 24/05 A2979 RMK A01 T02350049  RH  030%=      5-min Rain = 0
KAD1 150301Z 19012KT 23/05 A2979 RMK A01 T02340049  RH  030%=      5-min Rain = 0
KAD1 150302Z 19012KT 23/05 A2979 RMK A01 T02330051  RH  031%=      5-min Rain = 0
KAD1 150303Z 19011KT 23/05 A2979 RMK A01 T02310051  RH  031%=      5-min Rain = 0
KAD1 150304Z 19011KT 23/05 A2979 RMK A01 T02300052  RH  031%=      5-min Rain = 0
KAD1 150305Z 18011KT 23/05 A2979 RMK A01 T02280052  RH  032%=      5-min Rain = 0
KAD1 150306Z 18011KT 23/05 A2979 RMK A01 T02270053  RH  032%=      5-min Rain = 0
KAD1 150307Z 18012KT 23/06 A2979 RMK A01 T02270055  RH  033%=      5-min Rain = 0
KAD1 150308Z 18013KT 23/06 A2979 RMK A01 T02270056  RH  033%=      5-min Rain = 0
KAD1 150309Z 18013KT 23/06 A298 RMK A01 T02270058  RH  034%=      5-min Rain = 0
KAD1 150310Z 19013KT 23/06 A298 RMK A01 T02260060  RH  034%=      5-min Rain = 0
KAD1 150311Z 19013KT 23/06 A298 RMK A01 T02260061  RH  034%=      5-min Rain = 0
KAD1 150312Z 19012KT 22/06 A298 RMK A01 T02240062  RH  035%=      5-min Rain = 0
KAD1 150313Z 19013KT 22/06 A298 RMK A01 T02240063  RH  035%=      5-min Rain = 0
KAD1 150314Z 19013KT 22/06 A298 RMK A01 T02230063  RH  035%=      5-min Rain = 0
KAD1 150315Z 19013KT 22/06 A298 RMK A01 T02230063  RH  035%=      5-min Rain = 0
KAD1 150316Z 18012KT 22/06 A298 RMK A01 T02240063  RH  035%=      5-min Rain = 0
KAD1 150317Z 18012KT 22/06 A298 RMK A01 T02230064  RH  036%=      5-min Rain = 0
KAD1 150318Z 18012KT 22/06 A298 RMK A01 T02230064  RH  036%=      5-min Rain = 0
KAD1 150319Z 18012KT 22/06 A298 RMK A01 T02230064  RH  036%=      5-min Rain = 0
KAD1 150320Z 18012KT 22/07 A298 RMK A01 T02230065  RH  036%=      5-min Rain = 0
KAD1 150321Z 18011KT 22/07 A298 RMK A01 T02220065  RH  036%=      5-min Rain = 0
KAD1 150322Z 19011KT 22/06 A298 RMK A01 T02220064  RH  036%=      5-min Rain = 0
KAD1 150323Z 18012KT 22/06 A298 RMK A01 T02220064  RH  036%=      5-min Rain = 0
KAD1 150324Z 18013KT 22/06 A298 RMK A01 T02220064  RH  036%=      5-min Rain = 0
KAD1 150325Z 19012KT 22/06 A298 RMK A01 T02220063  RH  036%=      5-min Rain = 0
KAD1 150326Z 19012KT 22/06 A298 RMK A01 T02220063  RH  036%=      5-min Rain = 0
KAD1 150327Z 19012KT 22/06 A298 RMK A01 T02230062  RH  035%=      5-min Rain = 0
KAD1 150328Z 20013KT 22/06 A298 RMK A01 T02240061  RH  035%=      5-min Rain = 0
KAD1 150329Z 20013KT 22/06 A298 RMK A01 T02240059  RH  034%=      5-min Rain = 0
KAD1 150330Z 20013KT 23/06 A298 RMK A01 T02250060  RH  034%=      5-min Rain = 0
KAD1 150331Z 20012KT 23/06 A298 RMK A01 T02250057  RH  034%=      5-min Rain = 0
KAD1 150332Z 20013KT 23/06 A298 RMK A01 T02270056  RH  033%=      5-min Rain = 0
KAD1 150333Z 20013KT 23/06 A298 RMK A01 T02270056  RH  033%=      5-min Rain = 0
KAD1 150334Z 21013KT 23/05 A298 RMK A01 T02270053  RH  032%=      5-min Rain = 0
KAD1 150335Z 21013KT 23/05 A298 RMK A01 T02290051  RH  031%=      5-min Rain = 0
KAD1 150336Z 21013KT 23/05 A298 RMK A01 T02310049  RH  031%=      5-min Rain = 0
KAD1 150337Z 21013KT 23/05 A298 RMK A01 T02320048  RH  030%=      5-min Rain = 0
KAD1 150338Z 20014KT 23/05 A298 RMK A01 T02330047  RH  030%=      5-min Rain = 0
KAD1 150339Z 20014KT 23/05 A298 RMK A01 T02340046  RH  029%=      5-min Rain = 0
KAD1 150340Z 21014KT 24/05 A298 RMK A01 T02350045  RH  029%=      5-min Rain = 0
KAD1 150341Z 20013KT 24/05 A298 RMK A01 T02360045  RH  029%=      5-min Rain = 0
KAD1 150342Z 21013KT 24/04 A298 RMK A01 T02360044  RH  029%=      5-min Rain = 0
KAD1 150343Z 21013KT 24/04 A298 RMK A01 T02360043  RH  028%=      5-min Rain = 0
KAD1 150344Z 20013KT 24/04 A298 RMK A01 T02360043  RH  028%=      5-min Rain = 0
KAD1 150345Z 20013KT 24/04 A298 RMK A01 T02360042  RH  028%=      5-min Rain = 0
KAD1 150346Z 20013KT 24/04 A298 RMK A01 T02360042  RH  028%=      5-min Rain = 0
KAD1 150347Z 21015KT 24/04 A298 RMK A01 T02360041  RH  028%=      5-min Rain = 0
KAD1 150348Z 21014KT 24/04 A298 RMK A01 T02370038  RH  027%=      5-min Rain = 0
KAD1 150349Z 21014KT 24/04 A298 RMK A01 T02380039  RH  027%=      5-min Rain = 0
KAD1 150350Z 21014KT 24/04 A298 RMK A01 T02380039  RH  028%=      5-min Rain = 0
KAD1 150351Z 21014KT 24/04 A298 RMK A01 T02380039  RH  027%=      5-min Rain = 0
KAD1 150352Z 21015KT 24/04 A298 RMK A01 T02370037  RH  027%=      5-min Rain = 0
KAD1 150353Z 21016KT 24/04 A298 RMK A01 T02380035  RH  027%=      5-min Rain = 0
KAD1 150354Z 21015KT 24/03 A298 RMK A01 T02390034  RH  026%=      5-min Rain = 0
KAD1 150355Z 21014KT 24/03 A2981 RMK A01 T02400033  RH  026%=      5-min Rain = 0
KAD1 150356Z 21014KT 24/03 A2981 RMK A01 T02400032  RH  026%=      5-min Rain = 0
KAD1 150357Z 21013KT 24/03 A2981 RMK A01 T02400031  RH  025%=      5-min Rain = 0
KAD1 150358Z 22016KT 24/03 A298 RMK A01 T02420025  RH  024%=      5-min Rain = 0
KAD1 150359Z 22015KT 25/02 A2981 RMK A01 T02460019  RH  023%=      5-min Rain = 0
KAD1 150400Z 22017KT 25/02 A298 RMK A01 T02520015  RH  021%=      5-min Rain = 0
KAD1 150401Z 22017KT 26/01 A2981 RMK A01 T02580013  RH  020%=      5-min Rain = 0
KAD1 150402Z 22016KT 26/01 A2981 RMK A01 T02610012  RH  020%=      5-min Rain = 0
KAD1 150403Z 22016KT 26/01 A2981 RMK A01 T02630012  RH  019%=      5-min Rain = 0
KAD1 150404Z 22017KT 26/01 A2981 RMK A01 T02640012  RH  019%=      5-min Rain = 0
KAD1 150405Z 22017KT 26/01 A2981 RMK A01 T02640011  RH  019%=      5-min Rain = 0
KAD1 150406Z 22017KT 26/01 A2981 RMK A01 T02640010  RH  019%=      5-min Rain = 0
KAD1 150407Z 22016KT 26/01 A2981 RMK A01 T02640011  RH  019%=      5-min Rain = 0
KAD1 150408Z 22017KT 26/01 A2981 RMK A01 T02640011  RH  019%=      5-min Rain = 0
KAD1 150409Z 22017KT 26/01 A2981 RMK A01 T02640011  RH  019%=      5-min Rain = 0
KAD1 150410Z 22017KT 26/01 A2981 RMK A01 T02640011  RH  019%=      5-min Rain = 0
KAD1 150411Z 22016KT 26/01 A2981 RMK A01 T02630011  RH  019%=      5-min Rain = 0
KAD1 150412Z 22018KT 26/01 A2981 RMK A01 T02630011  RH  019%=      5-min Rain = 0
KAD1 150413Z 22017KT 26/01 A2981 RMK A01 T02630012  RH  019%=      5-min Rain = 0
KAD1 150414Z 22017KT 26/01 A2981 RMK A01 T02630012  RH  020%=      5-min Rain = 0
KAD1 150415Z 22018G24KT 26/01 A2981 RMK A01 T02620013  RH  020%=      5-min Rain = 0
KAD1 150416Z 21017KT 26/01 A2981 RMK A01 T02610014  RH  020%=      5-min Rain = 0
KAD1 150417Z 22015KT 26/02 A2981 RMK A01 T02610015  RH  020%=      5-min Rain = 0
KAD1 150418Z 22015KT 26/02 A2981 RMK A01 T02590015  RH  020%=      5-min Rain = 0
KAD1 150419Z 22016KT 26/02 A2981 RMK A01 T02570016  RH  021%=      5-min Rain = 0
KAD1 150420Z 22016G21KT 26/02 A2981 RMK A01 T02550016  RH  021%=      5-min Rain = 0
KAD1 150421Z 22017KT 25/02 A2981 RMK A01 T02540016  RH  021%=      5-min Rain = 0
KAD1 150422Z 21016G21KT 25/02 A2982 RMK A01 T02540016  RH  021%=      5-min Rain = 0
KAD1 150423Z 22018KT 26/02 A2982 RMK A01 T02550016  RH  021%=      5-min Rain = 0
KAD1 150424Z 21017KT 26/02 A2981 RMK A01 T02550016  RH  021%=      5-min Rain = 0
KAD1 150425Z 22016KT 26/02 A2982 RMK A01 T02550017  RH  021%=      5-min Rain = 0
KAD1 150426Z 22016KT 25/02 A2982 RMK A01 T02540016  RH  021%=      5-min Rain = 0
KAD1 150427Z 22016KT 25/02 A2982 RMK A01 T02540017  RH  021%=      5-min Rain = 0
KAD1 150428Z 22017KT 25/02 A2982 RMK A01 T02530017  RH  021%=      5-min Rain = 0
KAD1 150429Z 21017KT 25/02 A2981 RMK A01 T02530015  RH  021%=      5-min Rain = 0
KAD1 150430Z 22017KT 25/02 A2981 RMK A01 T02540015  RH  021%=      5-min Rain = 0
KAD1 150431Z 21016G22KT 26/02 A2982 RMK A01 T02550015  RH  021%=      5-min Rain = 0
KAD1 150432Z 21016KT 26/02 A2982 RMK A01 T02550015  RH  021%=      5-min Rain = 0
KAD1 150433Z 22015KT 25/02 A2982 RMK A01 T02540015  RH  021%=      5-min Rain = 0
KAD1 150434Z 21016G21KT 25/01 A2982 RMK A01 T02530014  RH  021%=      5-min Rain = 0
KAD1 150435Z 22016G21KT 25/01 A2982 RMK A01 T02530012  RH  021%=      5-min Rain = 0
KAD1 150436Z 21017KT 25/01 A2982 RMK A01 T02540013  RH  021%=      5-min Rain = 0
KAD1 150437Z 22016KT 25/01 A2982 RMK A01 T02540012  RH  021%=      5-min Rain = 0
KAD1 150438Z 22017G22KT 26/01 A2982 RMK A01 T02550013  RH  021%=      5-min Rain = 0
KAD1 150439Z 21016G21KT 26/01 A2982 RMK A01 T02550012  RH  020%=      5-min Rain = 0
KAD1 150440Z 22017G22KT 26/01 A2982 RMK A01 T02550012  RH  020%=      5-min Rain = 0
KAD1 150441Z 21017G22KT 26/01 A2982 RMK A01 T02550011  RH  020%=      5-min Rain = 0
KAD1 150442Z 21017KT 26/01 A2982 RMK A01 T02550011  RH  020%=      5-min Rain = 0
KAD1 150443Z 21017KT 26/01 A2981 RMK A01 T02550011  RH  020%=      5-min Rain = 0
KAD1 150444Z 21016KT 26/01 A2982 RMK A01 T02550012  RH  020%=      5-min Rain = 0
KAD1 150445Z 21017KT 25/01 A2982 RMK A01 T02530011  RH  020%=      5-min Rain = 0
KAD1 150446Z 21018KT 25/01 A2981 RMK A01 T02530010  RH  020%=      5-min Rain = 0
KAD1 150447Z 21018KT 25/01 A2982 RMK A01 T02540009  RH  020%=      5-min Rain = 0
KAD1 150448Z 22017KT 26/01 A2982 RMK A01 T02550009  RH  020%=      5-min Rain = 0
KAD1 150449Z 21017KT 26/01 A2982 RMK A01 T02550008  RH  020%=      5-min Rain = 0
KAD1 150450Z 22016G21KT 26/01 A2982 RMK A01 T02550008  RH  020%=      5-min Rain = 0
KAD1 150451Z 22018KT 26/01 A2982 RMK A01 T02550007  RH  020%=      5-min Rain = 0
KAD1 150452Z 22020KT 26/01 A2982 RMK A01 T02560007  RH  020%=      5-min Rain = 0
KAD1 150453Z 22018KT 26/01 A2982 RMK A01 T02570007  RH  019%=      5-min Rain = 0
KAD1 150454Z 21018KT 26/01 A2982 RMK A01 T02570007  RH  019%=      5-min Rain = 0
KAD1 150455Z 22018G23KT 26/01 A2982 RMK A01 T02570008  RH  020%=      5-min Rain = 0
KAD1 150456Z 21020KT 26/01 A2982 RMK A01 T02570006  RH  019%=      5-min Rain = 0
KAD1 150457Z 21018KT 26/01 A2982 RMK A01 T02570006  RH  019%=      5-min Rain = 0
KAD1 150458Z 21018KT 26/01 A2982 RMK A01 T02570006  RH  019%=      5-min Rain = 0
KAD1 150459Z 21019G24KT 26/01 A2982 RMK A01 T02570007  RH  019%=      5-min Rain = 0

Page generated in 0.0801 seconds.